Time,TemperatureF,DewpointF,PressureIn,WindDirection,WindDirectionDegrees,WindSpeedMPH,WindSpeedGustMPH,Humidity,HourlyPrecipIn,Conditions,Clouds,dailyrainin,SoftwareType,DateUTC
2013-06-29 00:00:00,67.1,48.4,29.68,NE,45,6.0,6.0,51,0.00,,,0.00,VWS V14.01,2013-06-29 05:00:00,
2013-06-29 00:01:00,67.1,48.4,29.68,North,0,12.1,12.1,51,0.00,,,0.00,VWS V14.01,2013-06-29 05:01:00,
2013-06-29 00:02:00,67.3,48.5,29.68,NNW,338,9.4,9.4,51,0.00,,,0.00,VWS V14.01,2013-06-29 05:02:00,
2013-06-29 00:04:00,67.1,48.4,29.68,NW,315,10.1,10.1,51,0.00,,,0.00,VWS V14.01,2013-06-29 05:04:00,
2013-06-29 00:06:00,67.1,48.4,29.68,NNE,22,10.1,10.1,51,0.00,,,0.00,VWS V14.01,2013-06-29 05:06:00,
2013-06-29 00:08:00,67.1,48.4,29.68,NW,315,14.1,14.1,51,0.00,,,0.00,VWS V14.01,2013-06-29 05:08:00,
2013-06-29 00:10:00,67.1,48.4,29.68,NNE,22,10.7,10.7,51,0.00,,,0.00,VWS V14.01,2013-06-29 05:10:00,
2013-06-29 00:11:00,67.1,48.4,29.68,North,0,2.7,4.7,51,0.00,,,0.00,VWS V14.01,2013-06-29 05:11:00,
2013-06-29 00:12:00,67.1,48.4,29.68,NNW,338,7.4,7.4,51,0.00,,,0.00,VWS V14.01,2013-06-29 05:12:00,
2013-06-29 00:14:00,67.1,48.4,29.68,NNW,338,4.7,4.7,51,0.00,,,0.00,VWS V14.01,2013-06-29 05:14:00,
2013-06-29 00:16:00,67.1,48.4,29.68,NE,45,7.4,7.4,51,0.00,,,0.00,VWS V14.01,2013-06-29 05:16:00,
2013-06-29 00:18:00,67.1,48.4,29.68,NNW,338,7.4,7.4,51,0.00,,,0.00,VWS V14.01,2013-06-29 05:18:00,
2013-06-29 00:20:00,66.9,48.7,29.68,North,0,3.4,3.4,52,0.00,,,0.00,VWS V14.01,2013-06-29 05:20:00,
2013-06-29 00:21:00,66.9,48.7,29.68,NNW,338,7.4,7.4,52,0.00,,,0.00,VWS V14.01,2013-06-29 05:21:00,
2013-06-29 00:22:00,66.9,48.7,29.68,ENE,68,9.4,9.4,52,0.00,,,0.00,VWS V14.01,2013-06-29 05:22:00,
2013-06-29 00:24:00,66.9,48.7,29.68,North,0,0.0,3.1,52,0.00,,,0.00,VWS V14.01,2013-06-29 05:24:00,
2013-06-29 00:26:00,66.9,48.7,29.68,North,0,6.0,6.0,52,0.00,,,0.00,VWS V14.01,2013-06-29 05:26:00,
2013-06-29 00:28:00,66.9,48.7,29.68,ENE,68,6.0,6.0,52,0.00,,,0.00,VWS V14.01,2013-06-29 05:28:00,
2013-06-29 00:30:00,66.7,48.6,29.68,North,0,4.0,4.0,52,0.00,,,0.00,VWS V14.01,2013-06-29 05:30:00,
2013-06-29 00:31:00,66.7,48.6,29.68,North,0,7.4,7.4,52,0.00,,,0.00,VWS V14.01,2013-06-29 05:31:00,
2013-06-29 00:32:00,66.7,48.6,29.68,North,0,3.4,3.6,52,0.00,,,0.00,VWS V14.01,2013-06-29 05:32:00,
2013-06-29 00:34:00,66.7,49.1,29.68,NE,45,8.7,8.7,53,0.00,,,0.00,VWS V14.01,2013-06-29 05:34:00,
2013-06-29 00:36:00,66.6,48.4,29.68,NNE,22,6.0,6.0,52,0.00,,,0.00,VWS V14.01,2013-06-29 05:36:00,
2013-06-29 00:38:00,66.4,48.2,29.68,ENE,68,0.0,2.5,52,0.00,,,0.00,VWS V14.01,2013-06-29 05:38:00,
2013-06-29 00:40:00,66.4,48.2,29.68,East,90,2.7,2.9,52,0.00,,,0.00,VWS V14.01,2013-06-29 05:40:00,
2013-06-29 00:41:00,66.2,48.1,29.68,NE,45,6.0,6.0,52,0.00,,,0.00,VWS V14.01,2013-06-29 05:41:00,
2013-06-29 00:42:00,66.2,48.1,29.68,North,0,8.7,8.7,52,0.00,,,0.00,VWS V14.01,2013-06-29 05:42:00,
2013-06-29 00:44:00,66.2,48.6,29.68,NNE,22,7.4,7.4,53,0.00,,,0.00,VWS V14.01,2013-06-29 05:44:00,
2013-06-29 00:46:00,66.2,49.1,29.68,North,0,0.0,4.7,54,0.00,,,0.00,VWS V14.01,2013-06-29 05:46:00,
2013-06-29 00:48:00,66.0,48.9,29.68,NE,45,0.0,0.0,54,0.00,,,0.00,VWS V14.01,2013-06-29 05:48:00,
2013-06-29 00:50:00,66.0,48.9,29.68,SE,135,0.0,3.4,54,0.00,,,0.00,VWS V14.01,2013-06-29 05:50:00,
2013-06-29 00:51:00,66.0,48.9,29.68,NNW,338,8.1,8.1,54,0.00,,,0.00,VWS V14.01,2013-06-29 05:51:00,
2013-06-29 00:52:00,66.0,48.9,29.68,ENE,68,10.7,10.7,54,0.00,,,0.00,VWS V14.01,2013-06-29 05:52:00,
2013-06-29 00:54:00,65.8,48.8,29.68,NW,315,0.0,3.4,54,0.00,,,0.00,VWS V14.01,2013-06-29 05:54:00,
2013-06-29 00:56:00,65.8,49.2,29.68,SE,135,0.0,0.0,55,0.00,,,0.00,VWS V14.01,2013-06-29 05:56:00,
2013-06-29 00:58:00,65.7,49.1,29.68,North,0,2.7,2.7,55,0.00,,,0.00,VWS V14.01,2013-06-29 05:58:00,
2013-06-29 01:00:00,65.7,48.6,29.68,NE,45,4.7,4.7,54,0.00,,,0.00,VWS V14.01,2013-06-29 06:00:00,
2013-06-29 01:01:00,65.7,49.1,29.68,ENE,68,0.0,1.6,55,0.00,,,0.00,VWS V14.01,2013-06-29 06:01:00,
2013-06-29 01:02:00,65.7,49.1,29.68,NE,45,0.0,0.9,55,0.00,,,0.00,VWS V14.01,2013-06-29 06:02:00,
2013-06-29 01:04:00,65.5,49.4,29.68,North,0,4.7,4.7,56,0.00,,,0.00,VWS V14.01,2013-06-29 06:04:00,
2013-06-29 01:06:00,65.5,49.4,29.68,NNW,338,3.4,4.3,56,0.00,,,0.00,VWS V14.01,2013-06-29 06:06:00,
2013-06-29 01:08:00,65.5,49.4,29.68,NNE,22,2.7,3.4,56,0.00,,,0.00,VWS V14.01,2013-06-29 06:08:00,
2013-06-29 01:10:00,65.5,49.9,29.65,North,0,0.0,1.6,57,0.00,,,0.00,VWS V14.01,2013-06-29 06:10:00,
2013-06-29 01:11:00,65.3,49.7,29.65,NNW,338,3.4,3.4,57,0.00,,,0.00,VWS V14.01,2013-06-29 06:11:00,
2013-06-29 01:12:00,65.3,49.7,29.65,NNW,338,0.0,1.6,57,0.00,,,0.00,VWS V14.01,2013-06-29 06:12:00,
2013-06-29 01:14:00,65.3,49.7,29.65,North,0,0.0,1.1,57,0.00,,,0.00,VWS V14.01,2013-06-29 06:14:00,
2013-06-29 01:16:00,65.3,49.7,29.65,NE,45,0.0,1.3,57,0.00,,,0.00,VWS V14.01,2013-06-29 06:16:00,
2013-06-29 01:18:00,65.1,49.5,29.65,SW,225,0.0,1.6,57,0.00,,,0.00,VWS V14.01,2013-06-29 06:18:00,
2013-06-29 01:20:00,65.1,50.0,29.65,NE,45,2.7,2.7,58,0.00,,,0.00,VWS V14.01,2013-06-29 06:20:00,
2013-06-29 01:21:00,65.1,50.5,29.65,NE,45,6.0,6.0,59,0.00,,,0.00,VWS V14.01,2013-06-29 06:21:00,
2013-06-29 01:22:00,65.1,50.5,29.65,NNW,338,9.4,9.4,59,0.00,,,0.00,VWS V14.01,2013-06-29 06:22:00,
2013-06-29 01:24:00,65.1,50.0,29.65,NW,315,0.0,2.0,58,0.00,,,0.00,VWS V14.01,2013-06-29 06:24:00,
2013-06-29 01:26:00,64.9,50.3,29.65,North,0,7.4,7.4,59,0.00,,,0.00,VWS V14.01,2013-06-29 06:26:00,
2013-06-29 01:28:00,64.9,50.7,29.65,NW,315,3.4,3.4,60,0.00,,,0.00,VWS V14.01,2013-06-29 06:28:00,
2013-06-29 01:30:00,64.9,51.2,29.65,West,270,6.7,6.7,61,0.00,,,0.00,VWS V14.01,2013-06-29 06:30:00,
2013-06-29 01:31:00,64.9,51.2,29.65,North,0,8.1,8.1,61,0.00,,,0.00,VWS V14.01,2013-06-29 06:31:00,
2013-06-29 01:32:00,64.9,51.2,29.65,NNW,338,4.7,4.7,61,0.00,,,0.00,VWS V14.01,2013-06-29 06:32:00,
2013-06-29 01:34:00,64.9,51.2,29.65,NNE,22,4.7,4.7,61,0.00,,,0.00,VWS V14.01,2013-06-29 06:34:00,
2013-06-29 01:36:00,64.9,51.6,29.65,East,90,0.0,1.1,62,0.00,,,0.00,VWS V14.01,2013-06-29 06:36:00,
2013-06-29 01:38:00,65.1,51.8,29.65,NNE,22,0.0,3.1,62,0.00,,,0.00,VWS V14.01,2013-06-29 06:38:00,
2013-06-29 01:40:00,64.9,51.6,29.65,NNE,22,7.4,7.4,62,0.00,,,0.00,VWS V14.01,2013-06-29 06:40:00,
2013-06-29 01:41:00,64.8,51.5,29.65,NE,45,4.0,4.0,62,0.00,,,0.00,VWS V14.01,2013-06-29 06:41:00,
2013-06-29 01:42:00,64.8,51.5,29.65,NNE,22,4.0,4.0,62,0.00,,,0.00,VWS V14.01,2013-06-29 06:42:00,
2013-06-29 01:44:00,64.8,51.9,29.65,SW,225,0.0,3.1,63,0.00,,,0.00,VWS V14.01,2013-06-29 06:44:00,
2013-06-29 01:46:00,64.8,51.9,29.65,NNW,338,6.7,6.7,63,0.00,,,0.00,VWS V14.01,2013-06-29 06:46:00,
2013-06-29 01:48:00,64.8,52.3,29.65,East,90,6.0,6.0,64,0.00,,,0.00,VWS V14.01,2013-06-29 06:48:00,
2013-06-29 01:50:00,64.8,51.9,29.65,ENE,68,0.0,2.2,63,0.00,,,0.00,VWS V14.01,2013-06-29 06:50:00,
2013-06-29 01:51:00,64.8,52.3,29.65,WNW,292,6.0,6.0,64,0.00,,,0.00,VWS V14.01,2013-06-29 06:51:00,
2013-06-29 01:52:00,64.8,52.3,29.65,NNE,22,7.4,7.4,64,0.00,,,0.00,VWS V14.01,2013-06-29 06:52:00,
2013-06-29 01:54:00,64.8,52.3,29.65,NE,45,8.1,8.1,64,0.00,,,0.00,VWS V14.01,2013-06-29 06:54:00,
2013-06-29 01:56:00,64.8,52.3,29.65,NW,315,8.7,8.7,64,0.00,,,0.00,VWS V14.01,2013-06-29 06:56:00,
2013-06-29 01:58:00,64.9,52.9,29.65,NNW,338,4.7,7.6,65,0.00,,,0.00,VWS V14.01,2013-06-29 06:58:00,
2013-06-29 02:00:00,64.9,52.5,29.65,NNW,338,10.7,10.7,64,0.00,,,0.00,VWS V14.01,2013-06-29 07:00:00,
2013-06-29 02:01:00,64.9,52.9,29.65,NNW,338,7.4,7.4,65,0.00,,,0.00,VWS V14.01,2013-06-29 07:01:00,
2013-06-29 02:02:00,64.9,52.5,29.65,NE,45,6.0,6.0,64,0.00,,,0.00,VWS V14.01,2013-06-29 07:02:00,
2013-06-29 02:04:00,64.9,52.5,29.65,NW,315,4.0,4.0,64,0.00,,,0.00,VWS V14.01,2013-06-29 07:04:00,
2013-06-29 02:06:00,64.9,52.5,29.65,NNW,338,14.8,14.8,64,0.00,,,0.00,VWS V14.01,2013-06-29 07:06:00,
2013-06-29 02:08:00,64.9,52.5,29.65,NE,45,6.0,6.0,64,0.00,,,0.00,VWS V14.01,2013-06-29 07:08:00,
2013-06-29 02:10:00,64.8,52.3,29.65,NNE,22,7.4,7.4,64,0.00,,,0.00,VWS V14.01,2013-06-29 07:10:00,
2013-06-29 02:11:00,64.8,52.3,29.65,North,0,4.7,4.7,64,0.00,,,0.00,VWS V14.01,2013-06-29 07:11:00,
2013-06-29 02:12:00,64.8,52.3,29.65,NNW,338,4.0,4.0,64,0.00,,,0.00,VWS V14.01,2013-06-29 07:12:00,
2013-06-29 02:14:00,64.8,52.3,29.65,NE,45,4.7,4.7,64,0.00,,,0.00,VWS V14.01,2013-06-29 07:14:00,
2013-06-29 02:16:00,64.9,52.9,29.65,WNW,292,8.7,8.7,65,0.00,,,0.00,VWS V14.01,2013-06-29 07:16:00,
2013-06-29 02:18:00,64.9,52.9,29.65,NNW,338,7.4,7.4,65,0.00,,,0.00,VWS V14.01,2013-06-29 07:18:00,
2013-06-29 02:20:00,64.9,52.9,29.65,North,0,10.7,10.7,65,0.00,,,0.00,VWS V14.01,2013-06-29 07:20:00,
2013-06-29 02:21:00,64.9,52.9,29.65,North,0,9.4,9.4,65,0.00,,,0.00,VWS V14.01,2013-06-29 07:21:00,
2013-06-29 02:22:00,64.9,52.9,29.65,NNE,22,6.0,6.0,65,0.00,,,0.00,VWS V14.01,2013-06-29 07:22:00,
2013-06-29 02:24:00,64.9,52.9,29.65,NW,315,8.1,8.1,65,0.00,,,0.00,VWS V14.01,2013-06-29 07:24:00,
2013-06-29 02:26:00,64.9,52.9,29.65,NNE,22,4.0,4.0,65,0.00,,,0.00,VWS V14.01,2013-06-29 07:26:00,
2013-06-29 02:28:00,64.9,52.9,29.65,NNW,338,3.4,3.4,65,0.00,,,0.00,VWS V14.01,2013-06-29 07:28:00,
2013-06-29 02:30:00,64.9,52.9,29.65,NNW,338,12.1,12.1,65,0.00,,,0.00,VWS V14.01,2013-06-29 07:30:00,
2013-06-29 02:31:00,64.9,53.3,29.65,NE,45,4.0,7.8,66,0.00,,,0.00,VWS V14.01,2013-06-29 07:31:00,
2013-06-29 02:32:00,64.9,53.3,29.65,NNE,22,6.7,6.7,66,0.00,,,0.00,VWS V14.01,2013-06-29 07:32:00,
2013-06-29 02:34:00,64.9,52.9,29.65,ENE,68,8.1,8.1,65,0.00,,,0.00,VWS V14.01,2013-06-29 07:34:00,
2013-06-29 02:36:00,64.9,53.3,29.65,NW,315,3.4,3.4,66,0.00,,,0.00,VWS V14.01,2013-06-29 07:36:00,
2013-06-29 02:38:00,64.9,53.3,29.65,East,90,10.1,10.1,66,0.00,,,0.00,VWS V14.01,2013-06-29 07:38:00,
2013-06-29 02:40:00,64.9,53.3,29.65,North,0,7.4,7.4,66,0.00,,,0.00,VWS V14.01,2013-06-29 07:40:00,
2013-06-29 02:41:00,64.9,53.3,29.65,NNE,22,0.0,3.1,66,0.00,,,0.00,VWS V14.01,2013-06-29 07:41:00,
2013-06-29 02:42:00,64.9,53.3,29.65,North,0,0.0,1.6,66,0.00,,,0.00,VWS V14.01,2013-06-29 07:42:00,
2013-06-29 02:44:00,64.9,53.3,29.65,North,0,7.4,7.4,66,0.00,,,0.00,VWS V14.01,2013-06-29 07:44:00,
2013-06-29 02:46:00,64.9,53.7,29.65,NNE,22,4.7,4.7,67,0.00,,,0.00,VWS V14.01,2013-06-29 07:46:00,
2013-06-29 02:48:00,64.9,53.7,29.65,NNE,22,2.7,3.6,67,0.00,,,0.00,VWS V14.01,2013-06-29 07:48:00,
2013-06-29 02:50:00,64.9,53.3,29.65,SW,225,0.0,2.9,66,0.00,,,0.00,VWS V14.01,2013-06-29 07:50:00,
2013-06-29 02:51:00,64.9,53.7,29.65,NNW,338,8.1,8.1,67,0.00,,,0.00,VWS V14.01,2013-06-29 07:51:00,
2013-06-29 02:52:00,64.9,53.7,29.65,WNW,292,7.4,7.4,67,0.00,,,0.00,VWS V14.01,2013-06-29 07:52:00,
2013-06-29 02:54:00,64.9,53.7,29.65,North,0,0.0,4.5,67,0.00,,,0.00,VWS V14.01,2013-06-29 07:54:00,
2013-06-29 02:56:00,64.8,54.0,29.65,NE,45,10.1,10.1,68,0.00,,,0.00,VWS V14.01,2013-06-29 07:56:00,
2013-06-29 02:58:00,64.8,54.0,29.65,SE,135,0.0,2.0,68,0.04,,,0.04,VWS V14.01,2013-06-29 07:58:00,
2013-06-29 03:00:00,64.4,54.4,29.65,NNE,22,10.1,10.1,70,0.04,,,0.04,VWS V14.01,2013-06-29 08:00:00,
2013-06-29 03:01:00,64.2,55.4,29.65,NE,45,8.7,8.7,73,0.04,,,0.04,VWS V14.01,2013-06-29 08:01:00,
2013-06-29 03:02:00,64.0,55.2,29.65,NNE,22,6.0,7.6,73,0.04,,,0.04,VWS V14.01,2013-06-29 08:02:00,
2013-06-29 03:04:00,64.0,56.3,29.65,East,90,21.5,21.5,76,0.04,,,0.04,VWS V14.01,2013-06-29 08:04:00,
2013-06-29 03:06:00,63.9,56.9,29.65,NW,315,12.1,12.1,78,0.04,,,0.04,VWS V14.01,2013-06-29 08:06:00,
2013-06-29 03:08:00,63.9,57.2,29.65,NNE,22,2.7,5.6,79,0.04,,,0.04,VWS V14.01,2013-06-29 08:08:00,
2013-06-29 03:10:00,63.7,57.0,29.65,NW,315,9.4,9.4,79,0.04,,,0.04,VWS V14.01,2013-06-29 08:10:00,
2013-06-29 03:11:00,63.7,57.4,29.65,NW,315,3.4,3.4,80,0.04,,,0.04,VWS V14.01,2013-06-29 08:11:00,
2013-06-29 03:12:00,63.7,57.4,29.65,WNW,292,8.7,8.7,80,0.04,,,0.04,VWS V14.01,2013-06-29 08:12:00,
2013-06-29 03:14:00,63.7,57.8,29.65,North,0,8.1,8.1,81,0.04,,,0.04,VWS V14.01,2013-06-29 08:14:00,
2013-06-29 03:16:00,63.5,57.6,29.65,NNE,22,9.4,9.4,81,0.04,,,0.04,VWS V14.01,2013-06-29 08:16:00,
2013-06-29 03:18:00,63.5,57.6,29.65,WNW,292,2.7,2.7,81,0.04,,,0.04,VWS V14.01,2013-06-29 08:18:00,
2013-06-29 03:20:00,63.5,57.6,29.65,NE,45,0.0,0.0,81,0.04,,,0.04,VWS V14.01,2013-06-29 08:20:00,
2013-06-29 03:21:00,63.5,57.6,29.65,NNE,22,3.4,3.4,81,0.04,,,0.04,VWS V14.01,2013-06-29 08:21:00,
2013-06-29 03:22:00,63.5,57.6,29.65,NE,45,6.0,6.0,81,0.04,,,0.04,VWS V14.01,2013-06-29 08:22:00,
2013-06-29 03:24:00,63.3,57.7,29.65,North,0,8.1,8.1,82,0.04,,,0.04,VWS V14.01,2013-06-29 08:24:00,
2013-06-29 03:26:00,63.3,57.7,29.65,WNW,292,3.4,3.4,82,0.04,,,0.04,VWS V14.01,2013-06-29 08:26:00,
2013-06-29 03:28:00,63.5,58.2,29.65,NE,45,2.7,2.7,83,0.08,,,0.08,VWS V14.01,2013-06-29 08:28:00,
2013-06-29 03:30:00,63.3,58.4,29.65,NE,45,0.0,2.0,84,0.08,,,0.08,VWS V14.01,2013-06-29 08:30:00,
2013-06-29 03:31:00,63.3,58.4,29.65,ENE,68,4.0,4.0,84,0.08,,,0.08,VWS V14.01,2013-06-29 08:31:00,
2013-06-29 03:32:00,63.3,58.4,29.65,NE,45,6.7,6.7,84,0.08,,,0.08,VWS V14.01,2013-06-29 08:32:00,
2013-06-29 03:34:00,63.3,58.4,29.65,NE,45,4.7,4.7,84,0.08,,,0.08,VWS V14.01,2013-06-29 08:34:00,
2013-06-29 03:36:00,63.3,58.7,29.65,NW,315,3.4,3.4,85,0.08,,,0.08,VWS V14.01,2013-06-29 08:36:00,
2013-06-29 03:38:00,63.3,58.7,29.65,West,270,8.1,8.1,85,0.08,,,0.08,VWS V14.01,2013-06-29 08:38:00,
2013-06-29 03:40:00,63.3,59.1,29.65,NW,315,4.0,4.0,86,0.08,,,0.08,VWS V14.01,2013-06-29 08:40:00,
2013-06-29 03:41:00,63.3,59.1,29.65,ENE,68,4.7,4.7,86,0.08,,,0.08,VWS V14.01,2013-06-29 08:41:00,
2013-06-29 03:42:00,63.3,59.1,29.65,North,0,3.4,3.4,86,0.08,,,0.08,VWS V14.01,2013-06-29 08:42:00,
2013-06-29 03:44:00,63.3,59.1,29.65,NNW,338,7.4,7.4,86,0.08,,,0.08,VWS V14.01,2013-06-29 08:44:00,
2013-06-29 03:46:00,63.3,59.7,29.65,North,0,8.7,8.7,88,0.08,,,0.08,VWS V14.01,2013-06-29 08:46:00,
2013-06-29 03:48:00,63.1,59.5,29.65,NNW,338,6.0,6.0,88,0.08,,,0.08,VWS V14.01,2013-06-29 08:48:00,
2013-06-29 03:50:00,63.1,59.5,29.65,NNW,338,4.0,4.0,88,0.08,,,0.08,VWS V14.01,2013-06-29 08:50:00,
2013-06-29 03:51:00,63.1,59.5,29.65,NNE,22,3.4,3.4,88,0.08,,,0.08,VWS V14.01,2013-06-29 08:51:00,
2013-06-29 03:52:00,63.1,59.5,29.65,NNW,338,6.0,6.0,88,0.08,,,0.08,VWS V14.01,2013-06-29 08:52:00,
2013-06-29 03:54:00,63.1,59.5,29.65,North,0,0.0,5.4,88,0.08,,,0.08,VWS V14.01,2013-06-29 08:54:00,
2013-06-29 03:56:00,63.1,59.8,29.65,NE,45,8.1,8.1,89,0.08,,,0.08,VWS V14.01,2013-06-29 08:56:00,
2013-06-29 03:58:00,63.1,59.8,29.65,NW,315,2.7,4.3,89,0.08,,,0.08,VWS V14.01,2013-06-29 08:58:00,
2013-06-29 04:00:00,63.1,59.8,29.65,NNE,22,11.4,11.4,89,0.04,,,0.08,VWS V14.01,2013-06-29 09:00:00,
2013-06-29 04:01:00,63.1,59.8,29.65,West,270,2.7,3.8,89,0.04,,,0.08,VWS V14.01,2013-06-29 09:01:00,
2013-06-29 04:02:00,63.1,59.8,29.65,NNE,22,6.7,6.7,89,0.04,,,0.08,VWS V14.01,2013-06-29 09:02:00,
2013-06-29 04:04:00,63.1,60.2,29.65,NE,45,8.1,8.1,90,0.04,,,0.08,VWS V14.01,2013-06-29 09:04:00,
2013-06-29 04:06:00,63.1,60.2,29.65,NNE,22,0.0,0.9,90,0.04,,,0.08,VWS V14.01,2013-06-29 09:06:00,
2013-06-29 04:08:00,63.1,60.2,29.65,NE,45,13.4,13.4,90,0.04,,,0.08,VWS V14.01,2013-06-29 09:08:00,
2013-06-29 04:10:00,63.1,60.2,29.65,NNW,338,3.4,3.4,90,0.04,,,0.08,VWS V14.01,2013-06-29 09:10:00,
2013-06-29 04:11:00,63.1,60.2,29.65,SE,135,4.7,4.7,90,0.04,,,0.08,VWS V14.01,2013-06-29 09:11:00,
2013-06-29 04:12:00,63.1,60.2,29.65,NE,45,4.0,4.0,90,0.04,,,0.08,VWS V14.01,2013-06-29 09:12:00,
2013-06-29 04:14:00,63.1,60.2,29.65,North,0,6.0,6.0,90,0.04,,,0.08,VWS V14.01,2013-06-29 09:14:00,
2013-06-29 04:16:00,63.1,60.5,29.65,SE,135,0.0,2.5,91,0.04,,,0.08,VWS V14.01,2013-06-29 09:16:00,
2013-06-29 04:18:00,63.1,60.5,29.65,NE,45,10.1,10.1,91,0.04,,,0.08,VWS V14.01,2013-06-29 09:18:00,
2013-06-29 04:20:00,63.3,60.7,29.65,NNW,338,4.0,4.0,91,0.04,,,0.08,VWS V14.01,2013-06-29 09:20:00,
2013-06-29 04:21:00,63.3,60.7,29.65,NE,45,4.0,4.0,91,0.04,,,0.08,VWS V14.01,2013-06-29 09:21:00,
2013-06-29 04:22:00,63.3,60.7,29.65,NE,45,16.8,16.8,91,0.04,,,0.08,VWS V14.01,2013-06-29 09:22:00,
2013-06-29 04:24:00,63.3,60.7,29.65,North,0,0.0,3.6,91,0.04,,,0.08,VWS V14.01,2013-06-29 09:24:00,
2013-06-29 04:26:00,63.3,60.7,29.65,ENE,68,6.0,6.0,91,0.04,,,0.08,VWS V14.01,2013-06-29 09:26:00,
2013-06-29 04:28:00,63.3,60.7,29.65,East,90,6.0,6.0,91,0.04,,,0.08,VWS V14.01,2013-06-29 09:28:00,
2013-06-29 04:30:00,63.3,60.7,29.65,NNW,338,4.7,6.0,91,0.00,,,0.08,VWS V14.01,2013-06-29 09:30:00,
2013-06-29 04:31:00,63.3,60.7,29.65,North,0,14.8,14.8,91,0.00,,,0.08,VWS V14.01,2013-06-29 09:31:00,
2013-06-29 04:32:00,63.3,60.7,29.65,ENE,68,8.1,8.1,91,0.00,,,0.08,VWS V14.01,2013-06-29 09:32:00,
2013-06-29 04:34:00,63.3,61.0,29.65,North,0,0.0,3.8,92,0.00,,,0.08,VWS V14.01,2013-06-29 09:34:00,
2013-06-29 04:36:00,63.3,61.0,29.65,NNE,22,4.7,4.7,92,0.00,,,0.08,VWS V14.01,2013-06-29 09:36:00,
2013-06-29 04:38:00,63.3,61.0,29.65,ENE,68,8.1,8.1,92,0.00,,,0.08,VWS V14.01,2013-06-29 09:38:00,
2013-06-29 04:40:00,63.1,60.8,29.65,North,0,2.7,4.3,92,0.00,,,0.08,VWS V14.01,2013-06-29 09:40:00,
2013-06-29 04:41:00,63.1,60.8,29.65,NNW,338,10.1,10.1,92,0.00,,,0.08,VWS V14.01,2013-06-29 09:41:00,
2013-06-29 04:42:00,63.1,60.8,29.65,NNE,22,14.1,14.1,92,0.00,,,0.08,VWS V14.01,2013-06-29 09:42:00,
2013-06-29 04:44:00,63.1,60.8,29.65,SE,135,4.0,4.7,92,0.00,,,0.08,VWS V14.01,2013-06-29 09:44:00,
2013-06-29 04:46:00,63.1,60.8,29.65,NNW,338,6.7,6.7,92,0.00,,,0.08,VWS V14.01,2013-06-29 09:46:00,
2013-06-29 04:48:00,63.1,60.5,29.65,NW,315,12.1,12.1,91,0.00,,,0.08,VWS V14.01,2013-06-29 09:48:00,
2013-06-29 04:50:00,63.1,60.5,29.65,NE,45,7.4,7.4,91,0.00,,,0.08,VWS V14.01,2013-06-29 09:50:00,
2013-06-29 04:51:00,63.1,60.5,29.65,NW,315,7.4,7.4,91,0.00,,,0.08,VWS V14.01,2013-06-29 09:51:00,
2013-06-29 04:52:00,63.1,60.5,29.65,NE,45,16.1,16.1,91,0.00,,,0.08,VWS V14.01,2013-06-29 09:52:00,
2013-06-29 04:54:00,63.1,60.5,29.65,ENE,68,8.1,8.1,91,0.00,,,0.08,VWS V14.01,2013-06-29 09:54:00,
2013-06-29 04:56:00,63.1,60.5,29.68,NNW,338,4.7,4.7,91,0.00,,,0.08,VWS V14.01,2013-06-29 09:56:00,
2013-06-29 04:58:00,63.1,60.5,29.68,NE,45,10.1,10.1,91,0.00,,,0.08,VWS V14.01,2013-06-29 09:58:00,
2013-06-29 05:00:00,63.0,60.3,29.68,NNE,22,10.7,10.7,91,0.00,,,0.08,VWS V14.01,2013-06-29 10:00:00,
2013-06-29 05:01:00,63.0,60.3,29.68,NE,45,21.5,21.5,91,0.00,,,0.08,VWS V14.01,2013-06-29 10:01:00,
2013-06-29 05:02:00,63.0,60.3,29.68,ENE,68,9.4,9.4,91,0.00,,,0.08,VWS V14.01,2013-06-29 10:02:00,
2013-06-29 05:04:00,63.0,60.3,29.68,NNE,22,8.7,8.7,91,0.00,,,0.08,VWS V14.01,2013-06-29 10:04:00,
2013-06-29 05:06:00,62.8,60.1,29.68,NE,45,8.7,8.7,91,0.04,,,0.12,VWS V14.01,2013-06-29 10:06:00,
2013-06-29 05:08:00,62.6,59.9,29.68,North,0,8.7,8.7,91,0.04,,,0.12,VWS V14.01,2013-06-29 10:08:00,
2013-06-29 05:10:00,62.6,59.6,29.68,NNE,22,3.4,3.4,90,0.04,,,0.12,VWS V14.01,2013-06-29 10:10:00,
2013-06-29 05:11:00,62.6,59.6,29.68,ESE,112,16.8,16.8,90,0.04,,,0.12,VWS V14.01,2013-06-29 10:11:00,
2013-06-29 05:12:00,62.4,59.8,29.68,NE,45,19.5,19.5,91,0.04,,,0.12,VWS V14.01,2013-06-29 10:12:00,
2013-06-29 05:14:00,62.2,59.3,29.68,NE,45,17.5,17.5,90,0.04,,,0.12,VWS V14.01,2013-06-29 10:14:00,
2013-06-29 05:16:00,62.1,59.1,29.68,NE,45,8.1,8.1,90,0.04,,,0.12,VWS V14.01,2013-06-29 10:16:00,
2013-06-29 05:18:00,62.1,59.1,29.68,NNE,22,10.7,10.7,90,0.04,,,0.12,VWS V14.01,2013-06-29 10:18:00,
2013-06-29 05:20:00,61.9,58.9,29.68,NE,45,12.1,12.1,90,0.04,,,0.12,VWS V14.01,2013-06-29 10:20:00,
2013-06-29 05:21:00,61.9,58.9,29.68,ENE,68,4.7,4.7,90,0.04,,,0.12,VWS V14.01,2013-06-29 10:21:00,
2013-06-29 05:22:00,61.9,58.9,29.68,East,90,8.7,8.7,90,0.04,,,0.12,VWS V14.01,2013-06-29 10:22:00,
2013-06-29 05:24:00,61.7,58.7,29.68,East,90,4.7,6.5,90,0.04,,,0.12,VWS V14.01,2013-06-29 10:24:00,
2013-06-29 05:26:00,61.7,58.7,29.71,North,0,3.4,3.4,90,0.04,,,0.12,VWS V14.01,2013-06-29 10:26:00,
2013-06-29 05:28:00,61.7,58.7,29.71,NE,45,4.7,4.7,90,0.04,,,0.12,VWS V14.01,2013-06-29 10:28:00,
2013-06-29 05:30:00,61.7,58.7,29.71,East,90,10.1,10.1,90,0.04,,,0.12,VWS V14.01,2013-06-29 10:30:00,
2013-06-29 05:31:00,61.5,58.6,29.71,SE,135,8.7,8.7,90,0.04,,,0.12,VWS V14.01,2013-06-29 10:31:00,
2013-06-29 05:32:00,61.5,58.6,29.71,East,90,3.4,3.6,90,0.04,,,0.12,VWS V14.01,2013-06-29 10:32:00,
2013-06-29 05:34:00,61.5,58.6,29.71,NNE,22,4.7,4.7,90,0.04,,,0.12,VWS V14.01,2013-06-29 10:34:00,
2013-06-29 05:36:00,61.5,58.6,29.71,NNE,22,12.1,12.1,90,0.04,,,0.12,VWS V14.01,2013-06-29 10:36:00,
2013-06-29 05:38:00,61.5,58.6,29.71,NE,45,8.7,8.7,90,0.04,,,0.12,VWS V14.01,2013-06-29 10:38:00,
2013-06-29 05:40:00,61.5,58.6,29.71,East,90,8.7,8.7,90,0.04,,,0.12,VWS V14.01,2013-06-29 10:40:00,
2013-06-29 05:41:00,61.5,58.6,29.71,ENE,68,4.7,4.7,90,0.04,,,0.12,VWS V14.01,2013-06-29 10:41:00,
2013-06-29 05:42:00,61.5,58.6,29.71,NE,45,8.1,8.1,90,0.04,,,0.12,VWS V14.01,2013-06-29 10:42:00,
2013-06-29 05:44:00,61.5,58.6,29.71,North,0,8.1,8.1,90,0.04,,,0.12,VWS V14.01,2013-06-29 10:44:00,
2013-06-29 05:46:00,61.5,58.6,29.71,North,0,10.7,10.7,90,0.04,,,0.12,VWS V14.01,2013-06-29 10:46:00,
2013-06-29 05:48:00,61.5,58.6,29.71,NNW,338,6.0,6.0,90,0.04,,,0.12,VWS V14.01,2013-06-29 10:48:00,
2013-06-29 05:50:00,61.5,58.6,29.71,NE,45,0.0,2.0,90,0.04,,,0.12,VWS V14.01,2013-06-29 10:50:00,
2013-06-29 05:51:00,61.5,58.6,29.71,NE,45,7.4,7.4,90,0.04,,,0.12,VWS V14.01,2013-06-29 10:51:00,
2013-06-29 05:52:00,61.5,58.6,29.71,ENE,68,4.7,4.7,90,0.04,,,0.12,VWS V14.01,2013-06-29 10:52:00,
2013-06-29 05:54:00,61.5,58.6,29.71,North,0,9.4,9.4,90,0.08,,,0.16,VWS V14.01,2013-06-29 10:54:00,
2013-06-29 05:56:00,61.5,58.9,29.68,NE,45,10.1,10.1,91,0.08,,,0.16,VWS V14.01,2013-06-29 10:56:00,
2013-06-29 05:58:00,61.5,58.9,29.68,ESE,112,4.7,4.7,91,0.08,,,0.16,VWS V14.01,2013-06-29 10:58:00,
2013-06-29 06:00:00,61.5,58.9,29.68,ENE,68,10.1,10.1,91,0.08,,,0.16,VWS V14.01,2013-06-29 11:00:00,
2013-06-29 06:01:00,61.5,58.9,29.68,NE,45,9.4,9.4,91,0.08,,,0.16,VWS V14.01,2013-06-29 11:01:00,
2013-06-29 06:02:00,61.5,58.9,29.68,NE,45,3.4,3.4,91,0.08,,,0.16,VWS V14.01,2013-06-29 11:02:00,
2013-06-29 06:04:00,61.5,58.9,29.68,North,0,4.7,4.7,91,0.08,,,0.16,VWS V14.01,2013-06-29 11:04:00,
2013-06-29 06:06:00,61.5,58.9,29.68,SSE,158,6.0,6.0,91,0.04,,,0.16,VWS V14.01,2013-06-29 11:06:00,
2013-06-29 06:08:00,61.5,58.9,29.68,NE,45,10.7,10.7,91,0.04,,,0.16,VWS V14.01,2013-06-29 11:08:00,
2013-06-29 06:10:00,61.5,58.9,29.71,NE,45,8.7,8.7,91,0.04,,,0.16,VWS V14.01,2013-06-29 11:10:00,
2013-06-29 06:11:00,61.3,58.7,29.71,ESE,112,7.4,7.4,91,0.04,,,0.16,VWS V14.01,2013-06-29 11:11:00,
2013-06-29 06:12:00,61.3,58.7,29.71,NE,45,7.4,7.4,91,0.04,,,0.16,VWS V14.01,2013-06-29 11:12:00,
2013-06-29 06:14:00,61.5,58.9,29.71,NE,45,10.7,10.7,91,0.04,,,0.16,VWS V14.01,2013-06-29 11:14:00,
2013-06-29 06:16:00,61.3,58.7,29.71,ESE,112,4.7,4.7,91,0.04,,,0.16,VWS V14.01,2013-06-29 11:16:00,
2013-06-29 06:18:00,61.3,58.7,29.71,North,0,7.4,7.4,91,0.04,,,0.16,VWS V14.01,2013-06-29 11:18:00,
2013-06-29 06:20:00,61.3,58.7,29.71,SW,225,10.1,10.1,91,0.04,,,0.16,VWS V14.01,2013-06-29 11:20:00,
2013-06-29 06:21:00,61.3,58.7,29.71,NNE,22,2.7,2.9,91,0.04,,,0.16,VWS V14.01,2013-06-29 11:21:00,
2013-06-29 06:22:00,61.5,58.9,29.71,NNE,22,4.0,4.0,91,0.04,,,0.16,VWS V14.01,2013-06-29 11:22:00,
2013-06-29 06:24:00,61.3,58.7,29.71,NNW,338,2.7,2.9,91,0.04,,,0.16,VWS V14.01,2013-06-29 11:24:00,
2013-06-29 06:26:00,61.5,58.9,29.71,ENE,68,2.7,2.9,91,0.04,,,0.16,VWS V14.01,2013-06-29 11:26:00,
2013-06-29 06:28:00,61.5,58.9,29.71,ENE,68,3.4,3.4,91,0.04,,,0.16,VWS V14.01,2013-06-29 11:28:00,
2013-06-29 06:30:00,61.5,58.9,29.71,NE,45,4.0,4.0,91,0.04,,,0.16,VWS V14.01,2013-06-29 11:30:00,
2013-06-29 06:31:00,61.7,59.0,29.71,North,0,2.7,2.7,91,0.04,,,0.16,VWS V14.01,2013-06-29 11:31:00,
2013-06-29 06:32:00,61.7,59.0,29.71,NNW,338,0.0,0.9,91,0.04,,,0.16,VWS V14.01,2013-06-29 11:32:00,
2013-06-29 06:34:00,61.7,59.0,29.71,NW,315,4.0,4.0,91,0.04,,,0.16,VWS V14.01,2013-06-29 11:34:00,
2013-06-29 06:36:00,61.7,59.0,29.71,East,90,6.0,6.0,91,0.04,,,0.16,VWS V14.01,2013-06-29 11:36:00,
2013-06-29 06:38:00,61.7,59.0,29.71,NNW,338,8.7,8.7,91,0.04,,,0.16,VWS V14.01,2013-06-29 11:38:00,
2013-06-29 06:40:00,61.7,59.0,29.71,NNE,22,0.0,3.8,91,0.04,,,0.16,VWS V14.01,2013-06-29 11:40:00,
2013-06-29 06:41:00,61.7,59.0,29.71,NNE,22,0.0,1.6,91,0.04,,,0.16,VWS V14.01,2013-06-29 11:41:00,
2013-06-29 06:42:00,61.7,59.0,29.71,NNW,338,8.7,8.7,91,0.04,,,0.16,VWS V14.01,2013-06-29 11:42:00,
2013-06-29 06:44:00,61.7,59.0,29.71,NNW,338,4.7,4.7,91,0.04,,,0.16,VWS V14.01,2013-06-29 11:44:00,
2013-06-29 06:46:00,61.9,59.5,29.71,NNW,338,7.4,7.4,92,0.04,,,0.16,VWS V14.01,2013-06-29 11:46:00,
2013-06-29 06:48:00,61.9,59.5,29.71,ENE,68,0.0,2.0,92,0.04,,,0.16,VWS V14.01,2013-06-29 11:48:00,
2013-06-29 06:50:00,61.9,59.5,29.71,NE,45,2.7,4.3,92,0.04,,,0.16,VWS V14.01,2013-06-29 11:50:00,
2013-06-29 06:51:00,61.9,59.5,29.71,ENE,68,6.7,6.7,92,0.04,,,0.16,VWS V14.01,2013-06-29 11:51:00,
2013-06-29 06:52:00,61.9,59.5,29.71,NNE,22,0.0,3.1,92,0.04,,,0.16,VWS V14.01,2013-06-29 11:52:00,
2013-06-29 06:54:00,61.9,59.5,29.71,East,90,2.7,3.6,92,0.04,,,0.16,VWS V14.01,2013-06-29 11:54:00,
2013-06-29 06:56:00,62.1,59.7,29.68,NNE,22,0.0,6.0,92,0.00,,,0.16,VWS V14.01,2013-06-29 11:56:00,
2013-06-29 06:58:00,62.1,59.7,29.68,NE,45,8.1,8.1,92,0.00,,,0.16,VWS V14.01,2013-06-29 11:58:00,
2013-06-29 07:00:00,62.1,59.7,29.68,South,180,4.0,4.0,92,0.00,,,0.16,VWS V14.01,2013-06-29 12:00:00,
2013-06-29 07:01:00,62.2,59.9,29.68,ESE,112,6.7,6.7,92,0.00,,,0.16,VWS V14.01,2013-06-29 12:01:00,
2013-06-29 07:02:00,62.2,59.9,29.68,NNE,22,2.7,2.7,92,0.00,,,0.16,VWS V14.01,2013-06-29 12:02:00,
2013-06-29 07:04:00,62.2,59.9,29.68,North,0,16.1,16.1,92,0.00,,,0.16,VWS V14.01,2013-06-29 12:04:00,
2013-06-29 07:06:00,62.2,59.9,29.68,NNW,338,0.0,3.4,92,0.00,,,0.16,VWS V14.01,2013-06-29 12:06:00,
2013-06-29 07:08:00,62.2,59.9,29.68,NW,315,8.7,8.7,92,0.00,,,0.16,VWS V14.01,2013-06-29 12:08:00,
2013-06-29 07:10:00,62.2,59.9,29.74,NNW,338,4.7,4.7,92,0.00,,,0.16,VWS V14.01,2013-06-29 12:10:00,
2013-06-29 07:11:00,62.2,59.9,29.74,NNE,22,4.7,4.7,92,0.00,,,0.16,VWS V14.01,2013-06-29 12:11:00,
2013-06-29 07:12:00,62.2,59.9,29.74,NW,315,10.7,10.7,92,0.00,,,0.16,VWS V14.01,2013-06-29 12:12:00,
2013-06-29 07:14:00,62.2,59.9,29.74,ENE,68,7.4,7.4,92,0.00,,,0.16,VWS V14.01,2013-06-29 12:14:00,
2013-06-29 07:16:00,62.2,59.9,29.74,WNW,292,14.8,14.8,92,0.00,,,0.16,VWS V14.01,2013-06-29 12:16:00,
2013-06-29 07:18:00,62.2,59.9,29.74,NNW,338,6.0,6.0,92,0.00,,,0.16,VWS V14.01,2013-06-29 12:18:00,
2013-06-29 07:20:00,62.2,59.9,29.74,NW,315,14.8,14.8,92,0.00,,,0.16,VWS V14.01,2013-06-29 12:20:00,
2013-06-29 07:21:00,62.2,59.9,29.74,NE,45,9.4,9.4,92,0.00,,,0.16,VWS V14.01,2013-06-29 12:21:00,
2013-06-29 07:22:00,62.2,59.9,29.74,NNE,22,14.8,14.8,92,0.00,,,0.16,VWS V14.01,2013-06-29 12:22:00,
2013-06-29 07:24:00,62.2,59.9,29.74,East,90,3.4,3.6,92,0.00,,,0.16,VWS V14.01,2013-06-29 12:24:00,
2013-06-29 07:26:00,62.4,60.1,29.74,NE,45,2.7,3.6,92,0.00,,,0.16,VWS V14.01,2013-06-29 12:26:00,
2013-06-29 07:28:00,62.4,60.1,29.74,NE,45,10.7,10.7,92,0.00,,,0.16,VWS V14.01,2013-06-29 12:28:00,
2013-06-29 07:30:00,62.4,60.1,29.74,WNW,292,7.4,7.4,92,0.00,,,0.16,VWS V14.01,2013-06-29 12:30:00,
2013-06-29 07:31:00,62.4,60.1,29.74,NW,315,6.7,6.7,92,0.00,,,0.16,VWS V14.01,2013-06-29 12:31:00,
2013-06-29 07:32:00,62.4,60.1,29.74,NE,45,7.4,7.4,92,0.00,,,0.16,VWS V14.01,2013-06-29 12:32:00,
2013-06-29 07:34:00,62.4,60.1,29.74,ESE,112,7.4,7.4,92,0.00,,,0.16,VWS V14.01,2013-06-29 12:34:00,
2013-06-29 07:36:00,62.6,60.2,29.74,NW,315,10.1,10.1,92,0.00,,,0.16,VWS V14.01,2013-06-29 12:36:00,
2013-06-29 07:38:00,62.6,60.2,29.74,NNW,338,9.4,9.4,92,0.00,,,0.16,VWS V14.01,2013-06-29 12:38:00,
2013-06-29 07:40:00,62.6,60.2,29.74,SSE,158,4.7,4.7,92,0.00,,,0.16,VWS V14.01,2013-06-29 12:40:00,
2013-06-29 07:41:00,62.6,60.2,29.74,North,0,6.7,6.7,92,0.00,,,0.16,VWS V14.01,2013-06-29 12:41:00,
2013-06-29 07:42:00,62.6,60.2,29.74,NW,315,10.7,10.7,92,0.00,,,0.16,VWS V14.01,2013-06-29 12:42:00,
2013-06-29 07:44:00,62.6,59.9,29.74,WNW,292,8.1,8.1,91,0.00,,,0.16,VWS V14.01,2013-06-29 12:44:00,
2013-06-29 07:46:00,62.8,60.1,29.74,NNE,22,7.4,7.4,91,0.00,,,0.16,VWS V14.01,2013-06-29 12:46:00,
2013-06-29 07:48:00,62.8,60.1,29.74,NNE,22,10.1,10.1,91,0.00,,,0.16,VWS V14.01,2013-06-29 12:48:00,
2013-06-29 07:50:00,63.0,60.3,29.74,NNW,338,7.4,7.4,91,0.00,,,0.16,VWS V14.01,2013-06-29 12:50:00,
2013-06-29 07:51:00,63.0,60.3,29.74,North,0,4.0,4.3,91,0.00,,,0.16,VWS V14.01,2013-06-29 12:51:00,
2013-06-29 07:52:00,63.0,60.3,29.74,North,0,4.7,4.7,91,0.00,,,0.16,VWS V14.01,2013-06-29 12:52:00,
2013-06-29 07:54:00,63.1,60.5,29.74,NW,315,7.4,7.4,91,0.00,,,0.16,VWS V14.01,2013-06-29 12:54:00,
2013-06-29 07:56:00,63.1,60.5,29.74,NNE,22,16.8,16.8,91,0.00,,,0.16,VWS V14.01,2013-06-29 12:56:00,
2013-06-29 07:58:00,63.1,60.2,29.74,NE,45,14.1,14.1,90,0.00,,,0.16,VWS V14.01,2013-06-29 12:58:00,
2013-06-29 08:00:00,63.1,60.2,29.74,NW,315,10.7,10.7,90,0.00,,,0.16,VWS V14.01,2013-06-29 13:00:00,
2013-06-29 08:01:00,63.5,60.5,29.74,NE,45,17.5,17.5,90,0.00,,,0.16,VWS V14.01,2013-06-29 13:01:00,
2013-06-29 08:02:00,63.5,60.5,29.74,NNE,22,8.1,10.3,90,0.00,,,0.16,VWS V14.01,2013-06-29 13:02:00,
2013-06-29 08:04:00,63.7,60.4,29.74,NE,45,22.2,22.2,89,0.00,,,0.16,VWS V14.01,2013-06-29 13:04:00,
2013-06-29 08:06:00,64.0,60.4,29.74,NW,315,8.7,8.7,88,0.00,,,0.16,VWS V14.01,2013-06-29 13:06:00,
2013-06-29 08:08:00,64.0,60.1,29.74,NNE,22,22.2,22.2,87,0.00,,,0.16,VWS V14.01,2013-06-29 13:08:00,
2013-06-29 08:10:00,64.4,60.5,29.76,WNW,292,10.1,10.1,87,0.00,,,0.16,VWS V14.01,2013-06-29 13:10:00,
2013-06-29 08:11:00,64.6,60.3,29.76,NNE,22,9.4,9.4,86,0.00,,,0.16,VWS V14.01,2013-06-29 13:11:00,
2013-06-29 08:12:00,64.6,60.3,29.76,NE,45,7.4,7.4,86,0.00,,,0.16,VWS V14.01,2013-06-29 13:12:00,
2013-06-29 08:14:00,64.9,60.3,29.76,NNE,22,14.1,14.1,85,0.00,,,0.16,VWS V14.01,2013-06-29 13:14:00,
2013-06-29 08:16:00,65.3,60.3,29.76,ESE,112,9.4,9.4,84,0.00,,,0.16,VWS V14.01,2013-06-29 13:16:00,
2013-06-29 08:18:00,65.3,60.0,29.76,NNE,22,7.4,7.4,83,0.00,,,0.16,VWS V14.01,2013-06-29 13:18:00,
2013-06-29 08:20:00,65.3,59.0,29.76,East,90,11.4,11.4,80,0.00,,,0.16,VWS V14.01,2013-06-29 13:20:00,
2013-06-29 08:21:00,65.1,58.1,29.76,NE,45,4.7,8.5,78,0.00,,,0.16,VWS V14.01,2013-06-29 13:21:00,
2013-06-29 08:22:00,65.3,58.3,29.76,NNW,338,10.7,10.7,78,0.00,,,0.16,VWS V14.01,2013-06-29 13:22:00,
2013-06-29 08:24:00,65.5,57.7,29.76,NW,315,8.1,8.1,76,0.00,,,0.16,VWS V14.01,2013-06-29 13:24:00,
2013-06-29 08:26:00,65.7,56.8,29.76,NE,45,12.8,12.8,73,0.00,,,0.16,VWS V14.01,2013-06-29 13:26:00,
2013-06-29 08:28:00,66.0,56.7,29.76,North,0,8.1,8.1,72,0.00,,,0.16,VWS V14.01,2013-06-29 13:28:00,
2013-06-29 08:30:00,66.2,56.5,29.76,NE,45,11.4,11.4,71,0.00,,,0.16,VWS V14.01,2013-06-29 13:30:00,
2013-06-29 08:31:00,66.4,56.7,29.76,NE,45,12.8,12.8,71,0.00,,,0.16,VWS V14.01,2013-06-29 13:31:00,
2013-06-29 08:32:00,66.4,56.7,29.76,NW,315,11.4,11.4,71,0.00,,,0.16,VWS V14.01,2013-06-29 13:32:00,
2013-06-29 08:34:00,66.2,55.3,29.76,NNE,22,11.4,11.4,68,0.00,,,0.16,VWS V14.01,2013-06-29 13:34:00,
2013-06-29 08:36:00,66.2,54.9,29.76,ENE,68,10.1,10.1,67,0.00,,,0.16,VWS V14.01,2013-06-29 13:36:00,
2013-06-29 08:38:00,66.2,54.9,29.76,NE,45,10.7,10.7,67,0.00,,,0.16,VWS V14.01,2013-06-29 13:38:00,
2013-06-29 08:40:00,66.2,54.5,29.76,NNE,22,9.4,9.4,66,0.00,,,0.16,VWS V14.01,2013-06-29 13:40:00,
2013-06-29 08:41:00,66.2,54.5,29.76,NW,315,8.1,8.1,66,0.00,,,0.16,VWS V14.01,2013-06-29 13:41:00,
2013-06-29 08:42:00,66.2,54.5,29.76,NW,315,8.7,8.7,66,0.00,,,0.16,VWS V14.01,2013-06-29 13:42:00,
2013-06-29 08:44:00,66.2,53.7,29.76,NNW,338,18.1,18.1,64,0.00,,,0.16,VWS V14.01,2013-06-29 13:44:00,
2013-06-29 08:46:00,66.4,53.4,29.76,NNE,22,6.7,6.7,63,0.00,,,0.16,VWS V14.01,2013-06-29 13:46:00,
2013-06-29 08:48:00,66.9,54.8,29.76,NW,315,8.1,8.1,65,0.00,,,0.16,VWS V14.01,2013-06-29 13:48:00,
2013-06-29 08:50:00,67.5,55.7,29.76,NNW,338,10.1,10.1,66,0.00,,,0.16,VWS V14.01,2013-06-29 13:50:00,
2013-06-29 08:51:00,67.5,54.9,29.76,North,0,7.4,7.4,64,0.00,,,0.16,VWS V14.01,2013-06-29 13:51:00,
2013-06-29 08:52:00,67.5,54.9,29.76,ENE,68,4.0,4.0,64,0.00,,,0.16,VWS V14.01,2013-06-29 13:52:00,
2013-06-29 08:54:00,67.8,54.8,29.76,ENE,68,8.7,8.7,63,0.00,,,0.16,VWS V14.01,2013-06-29 13:54:00,
2013-06-29 08:56:00,67.8,53.0,29.76,NNE,22,6.7,6.7,59,0.00,,,0.16,VWS V14.01,2013-06-29 13:56:00,
2013-06-29 08:58:00,67.8,52.0,29.76,North,0,10.1,10.1,57,0.00,,,0.16,VWS V14.01,2013-06-29 13:58:00,
2013-06-29 09:00:00,67.3,50.6,29.76,NW,315,8.1,8.1,55,0.00,,,0.16,VWS V14.01,2013-06-29 14:00:00,
2013-06-29 09:01:00,67.3,51.1,29.76,WNW,292,4.7,4.7,56,0.00,,,0.16,VWS V14.01,2013-06-29 14:01:00,
2013-06-29 09:02:00,67.3,51.5,29.76,NE,45,10.1,10.1,57,0.00,,,0.16,VWS V14.01,2013-06-29 14:02:00,
2013-06-29 09:04:00,67.5,52.2,29.76,NNE,22,9.4,9.4,58,0.00,,,0.16,VWS V14.01,2013-06-29 14:04:00,
2013-06-29 09:06:00,67.3,51.1,29.76,NNW,338,9.4,9.4,56,0.00,,,0.16,VWS V14.01,2013-06-29 14:06:00,
2013-06-29 09:08:00,67.1,50.4,29.76,NE,45,16.1,16.1,55,0.00,,,0.16,VWS V14.01,2013-06-29 14:08:00,
2013-06-29 09:10:00,67.3,50.1,29.76,NNW,338,8.7,8.7,54,0.00,,,0.16,VWS V14.01,2013-06-29 14:10:00,
2013-06-29 09:11:00,67.1,50.4,29.76,NNW,338,12.1,12.1,55,0.00,,,0.16,VWS V14.01,2013-06-29 14:11:00,
2013-06-29 09:12:00,67.1,50.4,29.76,NW,315,8.1,8.1,55,0.00,,,0.16,VWS V14.01,2013-06-29 14:12:00,
2013-06-29 09:14:00,67.5,51.7,29.76,NNW,338,8.7,8.7,57,0.00,,,0.16,VWS V14.01,2013-06-29 14:14:00,
2013-06-29 09:16:00,67.6,51.4,29.76,NNW,338,10.7,10.7,56,0.00,,,0.16,VWS V14.01,2013-06-29 14:16:00,
2013-06-29 09:18:00,67.6,50.9,29.76,NE,45,10.7,10.7,55,0.00,,,0.16,VWS V14.01,2013-06-29 14:18:00,
2013-06-29 09:20:00,67.6,50.9,29.76,WNW,292,10.7,10.7,55,0.00,,,0.16,VWS V14.01,2013-06-29 14:20:00,
2013-06-29 09:21:00,67.6,51.4,29.76,NNE,22,7.4,7.4,56,0.00,,,0.16,VWS V14.01,2013-06-29 14:21:00,
2013-06-29 09:22:00,67.6,51.4,29.76,WSW,248,11.4,11.4,56,0.00,,,0.16,VWS V14.01,2013-06-29 14:22:00,
2013-06-29 09:24:00,67.6,50.4,29.76,East,90,6.7,6.7,54,0.00,,,0.16,VWS V14.01,2013-06-29 14:24:00,
2013-06-29 09:26:00,67.8,51.1,29.76,NNE,22,4.0,4.0,55,0.00,,,0.16,VWS V14.01,2013-06-29 14:26:00,
2013-06-29 09:28:00,67.8,50.6,29.76,NNE,22,6.7,6.7,54,0.00,,,0.16,VWS V14.01,2013-06-29 14:28:00,
2013-06-29 09:30:00,68.0,50.2,29.76,WSW,248,11.4,11.4,53,0.00,,,0.16,VWS V14.01,2013-06-29 14:30:00,
2013-06-29 09:31:00,68.2,50.4,29.76,NE,45,4.0,4.0,53,0.00,,,0.16,VWS V14.01,2013-06-29 14:31:00,
2013-06-29 09:32:00,68.4,50.6,29.76,NE,45,4.0,4.0,53,0.00,,,0.16,VWS V14.01,2013-06-29 14:32:00,
2013-06-29 09:34:00,68.9,50.0,29.76,NNE,22,6.7,6.7,51,0.00,,,0.16,VWS V14.01,2013-06-29 14:34:00,
2013-06-29 09:36:00,70.0,50.5,29.76,NE,45,7.4,7.4,50,0.00,,,0.16,VWS V14.01,2013-06-29 14:36:00,
2013-06-29 09:38:00,70.7,50.1,29.76,NW,315,10.7,10.7,48,0.00,,,0.16,VWS V14.01,2013-06-29 14:38:00,
2013-06-29 09:40:00,71.2,50.6,29.76,NNE,22,4.7,4.7,48,0.00,,,0.16,VWS V14.01,2013-06-29 14:40:00,
2013-06-29 09:41:00,72.0,50.1,29.76,East,90,10.1,10.1,46,0.00,,,0.16,VWS V14.01,2013-06-29 14:41:00,
2013-06-29 09:42:00,72.0,50.1,29.76,NNE,22,9.4,9.4,46,0.00,,,0.16,VWS V14.01,2013-06-29 14:42:00,
2013-06-29 09:44:00,72.3,48.6,29.76,NE,45,3.4,6.0,43,0.00,,,0.16,VWS V14.01,2013-06-29 14:44:00,
2013-06-29 09:46:00,72.9,46.5,29.76,NW,315,7.4,7.4,39,0.00,,,0.16,VWS V14.01,2013-06-29 14:46:00,
2013-06-29 09:48:00,72.9,48.5,29.76,NNE,22,16.1,16.1,42,0.00,,,0.16,VWS V14.01,2013-06-29 14:48:00,
2013-06-29 09:50:00,73.0,46.6,29.76,NNE,22,16.1,16.1,39,0.00,,,0.16,VWS V14.01,2013-06-29 14:50:00,
2013-06-29 09:51:00,73.2,44.0,29.76,NNW,338,10.7,10.7,35,0.00,,,0.16,VWS V14.01,2013-06-29 14:51:00,
2013-06-29 09:52:00,73.2,44.7,29.76,ESE,112,8.1,8.1,36,0.00,,,0.16,VWS V14.01,2013-06-29 14:52:00,
2013-06-29 09:54:00,73.8,45.2,29.76,NE,45,10.1,10.1,36,0.00,,,0.16,VWS V14.01,2013-06-29 14:54:00,
2013-06-29 09:56:00,74.3,45.7,29.76,SE,135,9.4,9.4,36,0.00,,,0.16,VWS V14.01,2013-06-29 14:56:00,
2013-06-29 09:58:00,73.9,45.3,29.76,NW,315,25.5,25.5,36,0.00,,,0.16,VWS V14.01,2013-06-29 14:58:00,
2013-06-29 10:00:00,73.6,44.3,29.76,NNE,22,21.5,21.5,35,0.00,,,0.16,VWS V14.01,2013-06-29 15:00:00,
2013-06-29 10:01:00,73.0,43.8,29.76,NNE,22,2.7,6.0,35,0.00,,,0.16,VWS V14.01,2013-06-29 15:01:00,
2013-06-29 10:02:00,72.9,44.4,29.76,NNW,338,9.4,9.4,36,0.00,,,0.16,VWS V14.01,2013-06-29 15:02:00,
2013-06-29 10:04:00,72.3,42.4,29.76,NNE,22,4.0,7.8,34,0.00,,,0.16,VWS V14.01,2013-06-29 15:04:00,
2013-06-29 10:06:00,73.4,44.1,29.76,NE,45,10.7,10.7,35,0.00,,,0.16,VWS V14.01,2013-06-29 15:06:00,
2013-06-29 10:08:00,73.0,43.0,29.76,North,0,11.4,11.4,34,0.00,,,0.16,VWS V14.01,2013-06-29 15:08:00,
2013-06-29 10:10:00,73.8,43.7,29.76,WSW,248,7.4,7.4,34,0.00,,,0.16,VWS V14.01,2013-06-29 15:10:00,
2013-06-29 10:11:00,74.7,44.5,29.76,NE,45,8.1,8.1,34,0.00,,,0.16,VWS V14.01,2013-06-29 15:11:00,
2013-06-29 10:12:00,74.7,44.5,29.76,East,90,4.7,4.7,34,0.00,,,0.16,VWS V14.01,2013-06-29 15:12:00,
2013-06-29 10:14:00,75.7,44.6,29.76,North,0,8.7,8.7,33,0.00,,,0.16,VWS V14.01,2013-06-29 15:14:00,
2013-06-29 10:16:00,76.3,45.1,29.76,NNE,22,18.8,18.8,33,0.00,,,0.16,VWS V14.01,2013-06-29 15:16:00,
2013-06-29 10:18:00,75.7,43.0,29.76,NW,315,8.7,8.7,31,0.00,,,0.16,VWS V14.01,2013-06-29 15:18:00,
2013-06-29 10:20:00,74.8,43.0,29.76,NE,45,21.5,21.5,32,0.00,,,0.16,VWS V14.01,2013-06-29 15:20:00,
2013-06-29 10:21:00,74.8,43.0,29.76,NE,45,8.7,8.7,32,0.00,,,0.16,VWS V14.01,2013-06-29 15:21:00,
2013-06-29 10:22:00,75.2,42.5,29.76,ESE,112,4.7,4.7,31,0.00,,,0.16,VWS V14.01,2013-06-29 15:22:00,
2013-06-29 10:24:00,75.2,42.5,29.76,NE,45,14.1,14.1,31,0.00,,,0.16,VWS V14.01,2013-06-29 15:24:00,
2013-06-29 10:26:00,73.4,41.8,29.76,NE,45,8.7,8.7,32,0.00,,,0.16,VWS V14.01,2013-06-29 15:26:00,
2013-06-29 10:28:00,73.4,41.8,29.76,NE,45,11.4,11.4,32,0.00,,,0.16,VWS V14.01,2013-06-29 15:28:00,
2013-06-29 10:30:00,75.0,44.0,29.76,North,0,6.0,6.0,33,0.00,,,0.16,VWS V14.01,2013-06-29 15:30:00,
2013-06-29 10:31:00,74.7,42.9,29.76,ENE,68,6.7,6.7,32,0.00,,,0.16,VWS V14.01,2013-06-29 15:31:00,
2013-06-29 10:32:00,74.5,42.7,29.76,North,0,9.4,9.4,32,0.00,,,0.16,VWS V14.01,2013-06-29 15:32:00,
2013-06-29 10:34:00,73.8,42.1,29.76,North,0,11.4,11.4,32,0.00,,,0.16,VWS V14.01,2013-06-29 15:34:00,
2013-06-29 10:36:00,73.0,42.3,29.76,WNW,292,6.0,6.5,33,0.00,,,0.16,VWS V14.01,2013-06-29 15:36:00,
2013-06-29 10:38:00,73.0,42.3,29.76,NNE,22,7.4,7.4,33,0.00,,,0.16,VWS V14.01,2013-06-29 15:38:00,
2013-06-29 10:40:00,73.2,42.4,29.74,NNE,22,9.4,9.4,33,0.00,,,0.16,VWS V14.01,2013-06-29 15:40:00,
2013-06-29 10:41:00,73.9,42.2,29.74,ENE,68,8.1,8.1,32,0.00,,,0.16,VWS V14.01,2013-06-29 15:41:00,
2013-06-29 10:42:00,73.9,42.2,29.74,North,0,10.1,10.1,32,0.00,,,0.16,VWS V14.01,2013-06-29 15:42:00,
2013-06-29 10:44:00,74.7,42.9,29.74,NNE,22,7.4,7.4,32,0.00,,,0.16,VWS V14.01,2013-06-29 15:44:00,
2013-06-29 10:46:00,74.7,42.9,29.74,NNW,338,10.1,10.1,32,0.00,,,0.16,VWS V14.01,2013-06-29 15:46:00,
2013-06-29 10:48:00,74.1,41.6,29.74,NNW,338,9.4,9.4,31,0.00,,,0.16,VWS V14.01,2013-06-29 15:48:00,
2013-06-29 10:50:00,74.5,42.7,29.74,North,0,4.0,5.4,32,0.00,,,0.16,VWS V14.01,2013-06-29 15:50:00,
2013-06-29 10:51:00,74.8,43.0,29.74,NW,315,16.1,16.1,32,0.00,,,0.16,VWS V14.01,2013-06-29 15:51:00,
2013-06-29 10:52:00,74.8,43.0,29.74,East,90,8.1,8.1,32,0.00,,,0.16,VWS V14.01,2013-06-29 15:52:00,
2013-06-29 10:54:00,74.7,42.9,29.74,ENE,68,8.7,8.7,32,0.00,,,0.16,VWS V14.01,2013-06-29 15:54:00,
2013-06-29 10:56:00,75.6,42.8,29.76,NE,45,6.0,6.0,31,0.00,,,0.16,VWS V14.01,2013-06-29 15:56:00,
2013-06-29 10:58:00,75.9,43.1,29.76,SE,135,12.8,12.8,31,0.00,,,0.16,VWS V14.01,2013-06-29 15:58:00,
2013-06-29 11:00:00,75.7,43.0,29.76,NW,315,8.7,8.7,31,0.00,,,0.16,VWS V14.01,2013-06-29 16:00:00,
2013-06-29 11:01:00,74.8,43.0,29.76,NNE,22,11.4,11.4,32,0.00,,,0.16,VWS V14.01,2013-06-29 16:01:00,
2013-06-29 11:02:00,74.5,42.7,29.76,NNE,22,8.1,8.1,32,0.00,,,0.16,VWS V14.01,2013-06-29 16:02:00,
2013-06-29 11:04:00,74.8,43.0,29.76,NE,45,7.4,7.4,32,0.00,,,0.16,VWS V14.01,2013-06-29 16:04:00,
2013-06-29 11:06:00,74.8,43.0,29.76,NW,315,8.7,8.7,32,0.00,,,0.16,VWS V14.01,2013-06-29 16:06:00,
2013-06-29 11:08:00,74.8,43.0,29.76,ENE,68,7.4,7.4,32,0.00,,,0.16,VWS V14.01,2013-06-29 16:08:00,
2013-06-29 11:10:00,74.5,42.7,29.74,ENE,68,9.4,9.4,32,0.00,,,0.16,VWS V14.01,2013-06-29 16:10:00,
2013-06-29 11:11:00,74.3,42.6,29.74,NNE,22,18.8,18.8,32,0.00,,,0.16,VWS V14.01,2013-06-29 16:11:00,
2013-06-29 11:12:00,74.3,42.6,29.74,NNE,22,18.8,18.8,32,0.00,,,0.16,VWS V14.01,2013-06-29 16:12:00,
2013-06-29 11:14:00,74.5,42.7,29.74,NNE,22,18.8,18.8,32,0.00,,,0.16,VWS V14.01,2013-06-29 16:14:00,
2013-06-29 11:16:00,74.3,42.6,29.74,NE,45,10.7,10.7,32,0.00,,,0.16,VWS V14.01,2013-06-29 16:16:00,
2013-06-29 11:18:00,74.7,42.9,29.74,NE,45,11.4,11.4,32,0.00,,,0.16,VWS V14.01,2013-06-29 16:18:00,
2013-06-29 11:20:00,74.8,43.0,29.74,NNE,22,9.4,9.4,32,0.00,,,0.16,VWS V14.01,2013-06-29 16:20:00,
2013-06-29 11:21:00,74.8,43.0,29.74,ENE,68,7.4,7.4,32,0.00,,,0.16,VWS V14.01,2013-06-29 16:21:00,
2013-06-29 11:22:00,74.7,42.9,29.74,NNE,22,10.1,10.1,32,0.00,,,0.16,VWS V14.01,2013-06-29 16:22:00,
2013-06-29 11:24:00,74.7,42.9,29.74,East,90,8.1,8.1,32,0.00,,,0.16,VWS V14.01,2013-06-29 16:24:00,
2013-06-29 11:26:00,74.5,42.7,29.76,NW,315,6.0,6.0,32,0.00,,,0.16,VWS V14.01,2013-06-29 16:26:00,
2013-06-29 11:28:00,74.5,42.7,29.76,ESE,112,8.1,8.1,32,0.00,,,0.16,VWS V14.01,2013-06-29 16:28:00,
2013-06-29 11:30:00,74.7,42.9,29.76,NNE,22,4.7,4.7,32,0.00,,,0.16,VWS V14.01,2013-06-29 16:30:00,
2013-06-29 11:31:00,74.8,43.0,29.76,NNE,22,4.7,4.7,32,0.00,,,0.16,VWS V14.01,2013-06-29 16:31:00,
2013-06-29 11:32:00,75.0,43.2,29.76,NW,315,4.7,4.7,32,0.00,,,0.16,VWS V14.01,2013-06-29 16:32:00,
2013-06-29 11:34:00,75.4,43.5,29.76,NNE,22,2.7,2.7,32,0.00,,,0.16,VWS V14.01,2013-06-29 16:34:00,
2013-06-29 11:36:00,75.2,43.3,29.76,WNW,292,17.5,17.5,32,0.00,,,0.16,VWS V14.01,2013-06-29 16:36:00,
2013-06-29 11:38:00,75.0,43.2,29.76,NNW,338,18.8,18.8,32,0.00,,,0.16,VWS V14.01,2013-06-29 16:38:00,
2013-06-29 11:40:00,74.8,43.0,29.76,NNE,22,4.7,5.6,32,0.00,,,0.16,VWS V14.01,2013-06-29 16:40:00,
2013-06-29 11:41:00,74.8,43.0,29.74,ENE,68,12.1,12.1,32,0.00,,,0.16,VWS V14.01,2013-06-29 16:41:00,
2013-06-29 11:42:00,75.0,43.2,29.74,North,0,23.5,23.5,32,0.00,,,0.16,VWS V14.01,2013-06-29 16:42:00,
2013-06-29 11:44:00,75.0,43.2,29.74,SE,135,7.4,7.4,32,0.00,,,0.16,VWS V14.01,2013-06-29 16:44:00,
2013-06-29 11:46:00,75.6,42.8,29.74,NNW,338,14.8,14.8,31,0.00,,,0.16,VWS V14.01,2013-06-29 16:46:00,
2013-06-29 11:48:00,75.7,43.0,29.74,NE,45,12.1,12.1,31,0.00,,,0.16,VWS V14.01,2013-06-29 16:48:00,
2013-06-29 11:50:00,76.1,42.5,29.74,NW,315,8.1,8.1,30,0.00,,,0.16,VWS V14.01,2013-06-29 16:50:00,
2013-06-29 11:51:00,76.8,42.2,29.74,NNE,22,10.7,10.7,29,0.00,,,0.16,VWS V14.01,2013-06-29 16:51:00,
2013-06-29 11:52:00,77.7,43.8,29.74,NNW,338,16.1,16.1,30,0.00,,,0.16,VWS V14.01,2013-06-29 16:52:00,
2013-06-29 11:54:00,78.4,44.5,29.74,ENE,68,10.1,10.1,30,0.00,,,0.16,VWS V14.01,2013-06-29 16:54:00,
2013-06-29 11:56:00,79.5,43.6,29.76,NNE,22,11.4,11.4,28,0.00,,,0.16,VWS V14.01,2013-06-29 16:56:00,
2013-06-29 11:58:00,79.2,42.3,29.76,NE,45,11.4,11.4,27,0.00,,,0.16,VWS V14.01,2013-06-29 16:58:00,
2013-06-29 12:00:00,79.7,42.8,29.76,NNW,338,8.7,8.7,27,0.00,,,0.16,VWS V14.01,2013-06-29 17:00:00,
2013-06-29 12:01:00,79.7,41.8,29.76,NNW,338,9.4,9.4,26,0.00,,,0.16,VWS V14.01,2013-06-29 17:01:00,
2013-06-29 12:02:00,79.5,41.7,29.76,North,0,10.7,10.7,26,0.00,,,0.16,VWS V14.01,2013-06-29 17:02:00,
2013-06-29 12:04:00,79.2,39.3,29.76,North,0,18.1,18.1,24,0.00,,,0.16,VWS V14.01,2013-06-29 17:04:00,
2013-06-29 12:06:00,79.7,39.8,29.76,NNE,22,14.8,14.8,24,0.00,,,0.16,VWS V14.01,2013-06-29 17:06:00,
2013-06-29 12:08:00,79.2,39.3,29.76,WNW,292,16.8,16.8,24,0.00,,,0.16,VWS V14.01,2013-06-29 17:08:00,
2013-06-29 12:10:00,78.6,38.8,29.76,ENE,68,12.1,12.1,24,0.00,,,0.16,VWS V14.01,2013-06-29 17:10:00,
2013-06-29 12:11:00,78.4,38.7,29.76,North,0,10.7,10.7,24,0.00,,,0.16,VWS V14.01,2013-06-29 17:11:00,
2013-06-29 12:12:00,78.1,38.4,29.76,NW,315,14.8,14.8,24,0.00,,,0.16,VWS V14.01,2013-06-29 17:12:00,
2013-06-29 12:14:00,77.4,38.8,29.76,SW,225,14.8,14.8,25,0.00,,,0.16,VWS V14.01,2013-06-29 17:14:00,
2013-06-29 12:16:00,77.0,39.5,29.76,ENE,68,11.4,11.4,26,0.00,,,0.16,VWS V14.01,2013-06-29 17:16:00,
2013-06-29 12:18:00,77.2,39.7,29.76,NNW,338,8.7,8.7,26,0.00,,,0.16,VWS V14.01,2013-06-29 17:18:00,
2013-06-29 12:20:00,77.4,39.8,29.76,ENE,68,16.8,16.8,26,0.00,,,0.16,VWS V14.01,2013-06-29 17:20:00,
2013-06-29 12:21:00,77.0,39.5,29.76,NNE,22,10.7,10.7,26,0.00,,,0.16,VWS V14.01,2013-06-29 17:21:00,
2013-06-29 12:22:00,77.0,39.5,29.76,WSW,248,8.1,8.1,26,0.00,,,0.16,VWS V14.01,2013-06-29 17:22:00,
2013-06-29 12:24:00,76.8,38.4,29.76,NNW,338,29.5,29.5,25,0.00,,,0.16,VWS V14.01,2013-06-29 17:24:00,
2013-06-29 12:26:00,76.8,38.4,29.76,NW,315,7.4,7.4,25,0.00,,,0.16,VWS V14.01,2013-06-29 17:26:00,
2013-06-29 12:28:00,77.0,39.5,29.76,ENE,68,16.1,16.1,26,0.00,,,0.16,VWS V14.01,2013-06-29 17:28:00,
2013-06-29 12:30:00,77.9,39.3,29.76,NNW,338,7.4,7.4,25,0.00,,,0.16,VWS V14.01,2013-06-29 17:30:00,
2013-06-29 12:31:00,78.6,40.9,29.76,NNE,22,8.1,8.1,26,0.00,,,0.16,VWS V14.01,2013-06-29 17:31:00,
2013-06-29 12:32:00,78.6,40.9,29.76,ENE,68,8.7,8.7,26,0.00,,,0.16,VWS V14.01,2013-06-29 17:32:00,
2013-06-29 12:34:00,79.9,39.9,29.76,North,0,7.4,7.4,24,0.00,,,0.16,VWS V14.01,2013-06-29 17:34:00,
2013-06-29 12:36:00,80.2,40.2,29.76,East,90,23.5,23.5,24,0.00,,,0.16,VWS V14.01,2013-06-29 17:36:00,
2013-06-29 12:38:00,80.2,40.2,29.76,SSE,158,12.1,12.1,24,0.00,,,0.16,VWS V14.01,2013-06-29 17:38:00,
2013-06-29 12:40:00,80.8,40.7,29.76,NNW,338,12.8,12.8,24,0.00,,,0.16,VWS V14.01,2013-06-29 17:40:00,
2013-06-29 12:41:00,80.8,40.7,29.76,ENE,68,17.5,17.5,24,0.00,,,0.16,VWS V14.01,2013-06-29 17:41:00,
2013-06-29 12:42:00,80.8,40.7,29.76,NE,45,19.5,19.5,24,0.00,,,0.16,VWS V14.01,2013-06-29 17:42:00,
2013-06-29 12:44:00,80.2,40.2,29.76,NE,45,8.1,8.1,24,0.00,,,0.16,VWS V14.01,2013-06-29 17:44:00,
2013-06-29 12:46:00,80.6,39.4,29.76,NE,45,12.1,12.1,23,0.00,,,0.16,VWS V14.01,2013-06-29 17:46:00,
2013-06-29 12:48:00,81.1,38.7,29.76,ENE,68,10.7,10.7,22,0.00,,,0.16,VWS V14.01,2013-06-29 17:48:00,
2013-06-29 12:50:00,80.1,39.0,29.76,SE,135,8.1,8.1,23,0.00,,,0.16,VWS V14.01,2013-06-29 17:50:00,
2013-06-29 12:51:00,80.1,39.0,29.76,North,0,14.1,14.1,23,0.00,,,0.16,VWS V14.01,2013-06-29 17:51:00,
2013-06-29 12:52:00,80.1,39.0,29.76,ENE,68,6.0,6.0,23,0.00,,,0.16,VWS V14.01,2013-06-29 17:52:00,
2013-06-29 12:54:00,79.9,38.8,29.76,NNE,22,9.4,9.4,23,0.00,,,0.16,VWS V14.01,2013-06-29 17:54:00,
2013-06-29 12:56:00,79.5,38.5,29.76,WNW,292,8.1,8.1,23,0.00,,,0.16,VWS V14.01,2013-06-29 17:56:00,
2013-06-29 12:58:00,80.1,39.0,29.76,ENE,68,8.7,8.7,23,0.00,,,0.16,VWS V14.01,2013-06-29 17:58:00,
2013-06-29 13:00:00,80.2,39.1,29.76,NNW,338,9.4,9.4,23,0.00,,,0.16,VWS V14.01,2013-06-29 18:00:00,
2013-06-29 13:01:00,80.1,37.8,29.76,NNE,22,9.4,10.5,22,0.00,,,0.16,VWS V14.01,2013-06-29 18:01:00,
2013-06-29 13:02:00,79.9,37.7,29.76,West,270,12.8,12.8,22,0.00,,,0.16,VWS V14.01,2013-06-29 18:02:00,
2013-06-29 13:04:00,79.2,38.2,29.76,NW,315,8.7,8.7,23,0.00,,,0.16,VWS V14.01,2013-06-29 18:04:00,
2013-06-29 13:06:00,78.8,36.8,29.76,ENE,68,9.4,9.4,22,0.00,,,0.16,VWS V14.01,2013-06-29 18:06:00,
2013-06-29 13:08:00,78.6,36.6,29.76,North,0,18.1,18.1,22,0.00,,,0.16,VWS V14.01,2013-06-29 18:08:00,
2013-06-29 13:10:00,78.4,36.5,29.74,East,90,16.1,16.1,22,0.00,,,0.16,VWS V14.01,2013-06-29 18:10:00,
2013-06-29 13:11:00,78.6,36.6,29.74,East,90,17.5,17.5,22,0.00,,,0.16,VWS V14.01,2013-06-29 18:11:00,
2013-06-29 13:12:00,79.2,37.1,29.74,North,0,9.4,9.4,22,0.00,,,0.16,VWS V14.01,2013-06-29 18:12:00,
2013-06-29 13:14:00,79.7,37.5,29.74,NW,315,17.5,17.5,22,0.00,,,0.16,VWS V14.01,2013-06-29 18:14:00,
2013-06-29 13:16:00,81.1,38.7,29.74,North,0,11.4,11.4,22,0.00,,,0.16,VWS V14.01,2013-06-29 18:16:00,
2013-06-29 13:18:00,81.7,38.0,29.74,ENE,68,18.1,18.1,21,0.00,,,0.16,VWS V14.01,2013-06-29 18:18:00,
2013-06-29 13:20:00,82.0,39.5,29.74,North,0,9.4,9.4,22,0.00,,,0.16,VWS V14.01,2013-06-29 18:20:00,
2013-06-29 13:22:00,81.5,39.0,29.74,NNE,22,16.8,16.8,22,0.00,,,0.16,VWS V14.01,2013-06-29 18:22:00,
2013-06-29 13:24:00,79.5,37.4,29.74,NE,45,10.7,10.7,22,0.00,,,0.16,VWS V14.01,2013-06-29 18:24:00,
2013-06-29 13:25:00,78.4,37.6,29.74,NE,45,10.7,10.7,23,0.00,,,0.16,VWS V14.01,2013-06-29 18:25:00,
2013-06-29 13:26:00,78.4,37.6,29.74,NE,45,10.7,10.7,23,0.00,,,0.16,VWS V14.01,2013-06-29 18:26:00,
2013-06-29 13:28:00,77.4,36.7,29.74,NNW,338,17.5,17.5,23,0.00,,,0.16,VWS V14.01,2013-06-29 18:28:00,
2013-06-29 13:30:00,78.6,38.8,29.74,NE,45,10.7,10.7,24,0.00,,,0.16,VWS V14.01,2013-06-29 18:30:00,
2013-06-29 13:32:00,79.0,39.2,29.74,North,0,6.0,6.0,24,0.00,,,0.16,VWS V14.01,2013-06-29 18:32:00,
2013-06-29 13:34:00,79.9,38.8,29.74,NE,45,14.1,14.1,23,0.00,,,0.16,VWS V14.01,2013-06-29 18:34:00,
2013-06-29 13:35:00,81.0,38.6,29.74,ENE,68,14.8,14.8,22,0.00,,,0.16,VWS V14.01,2013-06-29 18:35:00,
2013-06-29 13:36:00,81.0,38.6,29.74,ENE,68,14.8,14.8,22,0.00,,,0.16,VWS V14.01,2013-06-29 18:36:00,
2013-06-29 13:38:00,80.8,37.2,29.74,East,90,12.8,12.8,21,0.00,,,0.16,VWS V14.01,2013-06-29 18:38:00,
2013-06-29 13:40:00,78.6,35.5,29.74,NW,315,7.4,7.4,21,0.00,,,0.16,VWS V14.01,2013-06-29 18:40:00,
2013-06-29 13:42:00,78.3,36.3,29.74,NNE,22,14.8,14.8,22,0.00,,,0.16,VWS V14.01,2013-06-29 18:42:00,
2013-06-29 13:44:00,77.2,34.3,29.74,East,90,8.7,8.7,21,0.00,,,0.16,VWS V14.01,2013-06-29 18:44:00,
2013-06-29 13:45:00,75.9,34.4,29.74,NNW,338,12.8,12.8,22,0.00,,,0.16,VWS V14.01,2013-06-29 18:45:00,
2013-06-29 13:46:00,75.9,34.4,29.74,NNE,22,8.1,11.0,22,0.00,,,0.16,VWS V14.01,2013-06-29 18:46:00,
2013-06-29 13:48:00,76.1,34.5,29.74,East,90,19.5,19.5,22,0.00,,,0.16,VWS V14.01,2013-06-29 18:48:00,
2013-06-29 13:50:00,77.7,34.7,29.74,NNE,22,9.4,9.4,21,0.00,,,0.16,VWS V14.01,2013-06-29 18:50:00,
2013-06-29 13:52:00,78.6,35.5,29.74,East,90,10.7,10.7,21,0.00,,,0.16,VWS V14.01,2013-06-29 18:52:00,
2013-06-29 13:54:00,78.8,34.4,29.74,West,270,18.8,18.8,20,0.00,,,0.16,VWS V14.01,2013-06-29 18:54:00,
2013-06-29 13:55:00,79.3,34.8,29.76,NW,315,11.4,11.4,20,0.00,,,0.16,VWS V14.01,2013-06-29 18:55:00,
2013-06-29 13:56:00,79.3,34.8,29.76,East,90,12.1,12.1,20,0.00,,,0.16,VWS V14.01,2013-06-29 18:56:00,
2013-06-29 13:58:00,79.5,35.0,29.76,NNW,338,11.4,11.4,20,0.00,,,0.16,VWS V14.01,2013-06-29 18:58:00,
2013-06-29 14:00:00,79.7,35.1,29.76,NNE,22,9.4,9.4,20,0.00,,,0.16,VWS V14.01,2013-06-29 19:00:00,
2013-06-29 14:02:00,80.1,35.4,29.76,NE,45,14.1,14.1,20,0.00,,,0.16,VWS V14.01,2013-06-29 19:02:00,
2013-06-29 14:04:00,81.0,36.2,29.76,North,0,16.1,16.1,20,0.00,,,0.16,VWS V14.01,2013-06-29 19:04:00,
2013-06-29 14:05:00,80.4,35.7,29.76,NE,45,12.1,12.1,20,0.00,,,0.16,VWS V14.01,2013-06-29 19:05:00,
2013-06-29 14:06:00,80.4,35.7,29.76,NE,45,17.5,17.5,20,0.00,,,0.16,VWS V14.01,2013-06-29 19:06:00,
2013-06-29 14:08:00,80.2,35.6,29.76,NNE,22,10.7,10.7,20,0.00,,,0.16,VWS V14.01,2013-06-29 19:08:00,
2013-06-29 14:10:00,80.8,34.7,29.76,ENE,68,8.1,8.1,19,0.00,,,0.16,VWS V14.01,2013-06-29 19:10:00,
2013-06-29 14:12:00,81.3,35.2,29.76,ENE,68,18.1,18.1,19,0.00,,,0.16,VWS V14.01,2013-06-29 19:12:00,
2013-06-29 14:14:00,81.5,35.3,29.76,NE,45,12.8,12.8,19,0.00,,,0.16,VWS V14.01,2013-06-29 19:14:00,
2013-06-29 14:15:00,81.9,35.6,29.76,ESE,112,12.1,12.1,19,0.00,,,0.16,VWS V14.01,2013-06-29 19:15:00,
2013-06-29 14:16:00,81.9,35.6,29.76,NE,45,8.1,8.1,19,0.00,,,0.16,VWS V14.01,2013-06-29 19:16:00,
2013-06-29 14:18:00,81.7,35.5,29.76,NNE,22,12.8,12.8,19,0.00,,,0.16,VWS V14.01,2013-06-29 19:18:00,
2013-06-29 14:20:00,82.2,35.9,29.76,North,0,8.1,8.1,19,0.00,,,0.16,VWS V14.01,2013-06-29 19:20:00,
2013-06-29 14:22:00,82.4,36.0,29.76,NNE,22,18.8,18.8,19,0.00,,,0.16,VWS V14.01,2013-06-29 19:22:00,
2013-06-29 14:24:00,82.4,36.0,29.76,NNE,22,18.8,18.8,19,0.00,,,0.16,VWS V14.01,2013-06-29 19:24:00,
2013-06-29 14:25:00,81.5,35.3,29.74,WNW,292,12.8,12.8,19,0.00,,,0.16,VWS V14.01,2013-06-29 19:25:00,
2013-06-29 14:26:00,81.5,35.3,29.74,WNW,292,12.8,12.8,19,0.00,,,0.16,VWS V14.01,2013-06-29 19:26:00,
2013-06-29 14:28:00,81.9,35.6,29.74,NNW,338,8.7,8.7,19,0.00,,,0.16,VWS V14.01,2013-06-29 19:28:00,
2013-06-29 14:30:00,82.0,35.8,29.74,NNE,22,12.1,12.1,19,0.00,,,0.16,VWS V14.01,2013-06-29 19:30:00,
2013-06-29 14:32:00,82.0,35.8,29.74,SW,225,8.7,8.7,19,0.00,,,0.16,VWS V14.01,2013-06-29 19:32:00,
2013-06-29 14:34:00,82.8,36.3,29.74,NW,315,10.1,10.1,19,0.00,,,0.16,VWS V14.01,2013-06-29 19:34:00,
2013-06-29 14:35:00,83.3,36.8,29.74,NNW,338,8.1,8.1,19,0.00,,,0.16,VWS V14.01,2013-06-29 19:35:00,
2013-06-29 14:36:00,83.3,36.8,29.74,NNW,338,8.1,8.1,19,0.00,,,0.16,VWS V14.01,2013-06-29 19:36:00,
2013-06-29 14:38:00,83.3,36.8,29.74,NNE,22,22.8,22.8,19,0.00,,,0.16,VWS V14.01,2013-06-29 19:38:00,
2013-06-29 14:40:00,82.6,36.2,29.76,NNW,338,10.1,10.1,19,0.00,,,0.16,VWS V14.01,2013-06-29 19:40:00,
2013-06-29 14:42:00,82.2,35.9,29.76,NNE,22,8.1,8.1,19,0.00,,,0.16,VWS V14.01,2013-06-29 19:42:00,
2013-06-29 14:44:00,81.3,35.2,29.76,NNW,338,12.8,12.8,19,0.00,,,0.16,VWS V14.01,2013-06-29 19:44:00,
2013-06-29 14:45:00,81.5,35.3,29.76,East,90,11.4,11.4,19,0.00,,,0.16,VWS V14.01,2013-06-29 19:45:00,
2013-06-29 14:46:00,81.1,35.0,29.76,East,90,11.4,11.4,19,0.00,,,0.16,VWS V14.01,2013-06-29 19:46:00,
2013-06-29 14:48:00,81.3,35.2,29.76,NE,45,30.2,30.2,19,0.00,,,0.16,VWS V14.01,2013-06-29 19:48:00,
2013-06-29 14:50:00,81.7,35.5,29.76,East,90,10.7,12.1,19,0.00,,,0.16,VWS V14.01,2013-06-29 19:50:00,
2013-06-29 14:52:00,81.1,35.0,29.76,NE,45,18.1,18.1,19,0.00,,,0.16,VWS V14.01,2013-06-29 19:52:00,
2013-06-29 14:54:00,80.8,34.7,29.76,NNE,22,16.1,16.1,19,0.00,,,0.16,VWS V14.01,2013-06-29 19:54:00,
2013-06-29 14:55:00,80.8,34.7,29.76,NW,315,8.7,8.7,19,0.00,,,0.16,VWS V14.01,2013-06-29 19:55:00,
2013-06-29 14:56:00,80.8,34.7,29.76,North,0,22.8,22.8,19,0.00,,,0.16,VWS V14.01,2013-06-29 19:56:00,
2013-06-29 14:58:00,81.3,35.2,29.76,NW,315,16.8,16.8,19,0.00,,,0.16,VWS V14.01,2013-06-29 19:58:00,
2013-06-29 15:00:00,82.4,36.0,29.76,NNE,22,10.1,10.1,19,0.00,,,0.16,VWS V14.01,2013-06-29 20:00:00,
2013-06-29 15:02:00,82.8,36.3,29.76,North,0,9.4,9.4,19,0.00,,,0.16,VWS V14.01,2013-06-29 20:02:00,
2013-06-29 15:04:00,82.9,36.5,29.76,ENE,68,10.7,10.7,19,0.00,,,0.16,VWS V14.01,2013-06-29 20:04:00,
2013-06-29 15:05:00,82.2,35.9,29.76,NNW,338,10.7,10.7,19,0.00,,,0.16,VWS V14.01,2013-06-29 20:05:00,
2013-06-29 15:06:00,82.2,35.9,29.76,NNW,338,10.7,10.7,19,0.00,,,0.16,VWS V14.01,2013-06-29 20:06:00,
2013-06-29 15:08:00,81.9,35.6,29.76,NNE,22,11.4,11.4,19,0.00,,,0.16,VWS V14.01,2013-06-29 20:08:00,
2013-06-29 15:10:00,81.0,34.9,29.74,WNW,292,10.1,10.1,19,0.00,,,0.16,VWS V14.01,2013-06-29 20:10:00,
2013-06-29 15:12:00,81.1,35.0,29.74,ENE,68,22.8,22.8,19,0.00,,,0.16,VWS V14.01,2013-06-29 20:12:00,
2013-06-29 15:14:00,80.4,35.7,29.74,East,90,18.8,18.8,20,0.00,,,0.16,VWS V14.01,2013-06-29 20:14:00,
2013-06-29 15:15:00,81.1,35.0,29.74,NNE,22,18.8,18.8,19,0.00,,,0.16,VWS V14.01,2013-06-29 20:15:00,
2013-06-29 15:16:00,81.1,35.0,29.74,NNE,22,18.8,18.8,19,0.00,,,0.16,VWS V14.01,2013-06-29 20:16:00,
2013-06-29 15:18:00,79.7,35.1,29.74,NE,45,10.7,11.9,20,0.00,,,0.16,VWS V14.01,2013-06-29 20:18:00,
2013-06-29 15:20:00,81.1,35.0,29.74,East,90,16.8,16.8,19,0.00,,,0.16,VWS V14.01,2013-06-29 20:20:00,
2013-06-29 15:22:00,81.5,35.3,29.74,NE,45,10.7,10.7,19,0.00,,,0.16,VWS V14.01,2013-06-29 20:22:00,
2013-06-29 15:24:00,83.5,36.9,29.74,NW,315,14.8,14.8,19,0.00,,,0.16,VWS V14.01,2013-06-29 20:24:00,
2013-06-29 15:25:00,82.8,36.3,29.76,NNW,338,8.1,8.1,19,0.00,,,0.16,VWS V14.01,2013-06-29 20:25:00,
2013-06-29 15:26:00,82.8,36.3,29.76,NNW,338,8.1,8.1,19,0.00,,,0.16,VWS V14.01,2013-06-29 20:26:00,
2013-06-29 15:28:00,81.1,35.0,29.76,North,0,16.1,16.1,19,0.00,,,0.16,VWS V14.01,2013-06-29 20:28:00,
2013-06-29 15:30:00,80.1,35.4,29.76,NE,45,24.2,24.2,20,0.00,,,0.16,VWS V14.01,2013-06-29 20:30:00,
2013-06-29 15:32:00,80.2,35.6,29.76,ENE,68,8.1,8.1,20,0.00,,,0.16,VWS V14.01,2013-06-29 20:32:00,
2013-06-29 15:34:00,79.9,35.3,29.76,NNE,22,32.2,32.2,20,0.00,,,0.16,VWS V14.01,2013-06-29 20:34:00,
2013-06-29 15:35:00,80.8,34.7,29.76,NW,315,14.1,14.1,19,0.00,,,0.16,VWS V14.01,2013-06-29 20:35:00,
2013-06-29 15:36:00,80.8,34.7,29.76,NW,315,14.1,14.1,19,0.00,,,0.16,VWS V14.01,2013-06-29 20:36:00,
2013-06-29 15:38:00,81.1,35.0,29.76,WNW,292,11.4,11.4,19,0.00,,,0.16,VWS V14.01,2013-06-29 20:38:00,
2013-06-29 15:40:00,81.5,35.3,29.76,ESE,112,9.4,9.4,19,0.00,,,0.16,VWS V14.01,2013-06-29 20:40:00,
2013-06-29 15:42:00,81.3,35.2,29.76,East,90,12.8,12.8,19,0.00,,,0.16,VWS V14.01,2013-06-29 20:42:00,
2013-06-29 15:44:00,81.1,35.0,29.76,NNW,338,19.5,19.5,19,0.00,,,0.16,VWS V14.01,2013-06-29 20:44:00,
2013-06-29 15:45:00,80.1,35.4,29.76,NNE,22,18.1,18.1,20,0.00,,,0.16,VWS V14.01,2013-06-29 20:45:00,
2013-06-29 15:46:00,79.9,35.3,29.76,NNE,22,23.5,23.5,20,0.00,,,0.16,VWS V14.01,2013-06-29 20:46:00,
2013-06-29 15:48:00,80.8,34.7,29.76,NNE,22,9.4,9.4,19,0.00,,,0.16,VWS V14.01,2013-06-29 20:48:00,
2013-06-29 15:50:00,81.5,35.3,29.76,ENE,68,10.1,10.1,19,0.00,,,0.16,VWS V14.01,2013-06-29 20:50:00,
2013-06-29 15:51:00,81.5,35.3,29.76,North,0,6.0,6.0,19,0.00,,,0.00,VWS V14.01,2013-06-29 20:51:00,
2013-06-29 15:52:00,81.5,35.3,29.76,NE,45,8.7,8.7,19,0.00,,,0.16,VWS V14.01,2013-06-29 20:52:00,
2013-06-29 15:54:00,80.8,34.7,29.76,ENE,68,18.8,18.8,19,0.00,,,0.16,VWS V14.01,2013-06-29 20:54:00,
2013-06-29 15:56:00,79.9,35.3,29.76,NE,45,18.8,18.8,20,0.00,,,0.16,VWS V14.01,2013-06-29 20:56:00,
2013-06-29 15:58:00,79.3,34.8,29.76,WNW,292,12.8,12.8,20,0.00,,,0.16,VWS V14.01,2013-06-29 20:58:00,
2013-06-29 16:00:00,79.3,34.8,29.76,ENE,68,16.1,16.1,20,0.00,,,0.16,VWS V14.01,2013-06-29 21:00:00,
2013-06-29 16:01:00,79.2,34.7,29.76,NNW,338,18.8,18.8,20,0.00,,,0.16,VWS V14.01,2013-06-29 21:01:00,
2013-06-29 16:02:00,78.3,33.9,29.76,NNE,22,12.1,13.0,20,0.00,,,0.16,VWS V14.01,2013-06-29 21:02:00,
2013-06-29 16:04:00,78.1,33.8,29.76,NNE,22,8.7,8.7,20,0.00,,,0.16,VWS V14.01,2013-06-29 21:04:00,
2013-06-29 16:06:00,78.1,33.8,29.76,NNE,22,22.8,22.8,20,0.00,,,0.16,VWS V14.01,2013-06-29 21:06:00,
2013-06-29 16:08:00,78.1,33.8,29.76,ENE,68,11.4,11.4,20,0.00,,,0.16,VWS V14.01,2013-06-29 21:08:00,
2013-06-29 16:10:00,78.3,33.9,29.76,NW,315,10.7,10.7,20,0.00,,,0.16,VWS V14.01,2013-06-29 21:10:00,
2013-06-29 16:11:00,78.4,34.1,29.76,NW,315,16.1,16.1,20,0.00,,,0.16,VWS V14.01,2013-06-29 21:11:00,
2013-06-29 16:12:00,78.8,34.4,29.76,NE,45,8.7,8.7,20,0.00,,,0.16,VWS V14.01,2013-06-29 21:12:00,
2013-06-29 16:14:00,79.7,35.1,29.76,NNW,338,9.4,9.4,20,0.00,,,0.16,VWS V14.01,2013-06-29 21:14:00,
2013-06-29 16:16:00,80.4,35.7,29.76,NNE,22,18.8,18.8,20,0.00,,,0.16,VWS V14.01,2013-06-29 21:16:00,
2013-06-29 16:18:00,81.0,36.2,29.76,NE,45,10.7,10.7,20,0.00,,,0.16,VWS V14.01,2013-06-29 21:18:00,
2013-06-29 16:20:00,81.7,36.8,29.76,NW,315,30.2,30.2,20,0.00,,,0.16,VWS V14.01,2013-06-29 21:20:00,
2013-06-29 16:21:00,81.5,36.6,29.76,NE,45,11.4,11.4,20,0.00,,,0.16,VWS V14.01,2013-06-29 21:21:00,
2013-06-29 16:22:00,81.3,35.2,29.76,NNE,22,8.1,8.1,19,0.00,,,0.16,VWS V14.01,2013-06-29 21:22:00,
2013-06-29 16:24:00,81.3,36.5,29.76,NE,45,10.7,10.7,20,0.00,,,0.16,VWS V14.01,2013-06-29 21:24:00,
2013-06-29 16:26:00,80.4,35.7,29.76,NNE,22,10.1,10.1,20,0.00,,,0.16,VWS V14.01,2013-06-29 21:26:00,
2013-06-29 16:28:00,80.2,35.6,29.76,NW,315,6.7,6.7,20,0.00,,,0.16,VWS V14.01,2013-06-29 21:28:00,
2013-06-29 16:30:00,80.6,34.6,29.76,NNW,338,7.4,7.4,19,0.00,,,0.16,VWS V14.01,2013-06-29 21:30:00,
2013-06-29 16:31:00,80.1,35.4,29.76,ENE,68,10.7,10.7,20,0.00,,,0.16,VWS V14.01,2013-06-29 21:31:00,
2013-06-29 16:32:00,80.1,35.4,29.76,NNE,22,16.8,16.8,20,0.00,,,0.16,VWS V14.01,2013-06-29 21:32:00,
2013-06-29 16:34:00,79.7,35.1,29.76,ENE,68,8.1,8.1,20,0.00,,,0.16,VWS V14.01,2013-06-29 21:34:00,
2013-06-29 16:36:00,80.4,35.7,29.76,SE,135,18.1,18.1,20,0.00,,,0.16,VWS V14.01,2013-06-29 21:36:00,
2013-06-29 16:38:00,79.9,35.3,29.76,NE,45,16.8,16.8,20,0.00,,,0.16,VWS V14.01,2013-06-29 21:38:00,
2013-06-29 16:40:00,79.0,34.5,29.76,NNW,338,12.8,12.8,20,0.00,,,0.16,VWS V14.01,2013-06-29 21:40:00,
2013-06-29 16:41:00,78.8,34.4,29.76,East,90,14.1,14.1,20,0.00,,,0.16,VWS V14.01,2013-06-29 21:41:00,
2013-06-29 16:42:00,78.8,34.4,29.76,NE,45,12.8,12.8,20,0.00,,,0.16,VWS V14.01,2013-06-29 21:42:00,
2013-06-29 16:44:00,79.3,34.8,29.76,North,0,14.1,14.1,20,0.00,,,0.16,VWS V14.01,2013-06-29 21:44:00,
2013-06-29 16:46:00,79.2,34.7,29.76,ESE,112,14.1,14.1,20,0.00,,,0.16,VWS V14.01,2013-06-29 21:46:00,
2013-06-29 16:48:00,79.7,35.1,29.76,NE,45,12.8,12.8,20,0.00,,,0.16,VWS V14.01,2013-06-29 21:48:00,
2013-06-29 16:50:00,80.1,35.4,29.76,NE,45,20.1,20.1,20,0.00,,,0.16,VWS V14.01,2013-06-29 21:50:00,
2013-06-29 16:51:00,80.4,35.7,29.76,SE,135,18.1,18.1,20,0.00,,,0.16,VWS V14.01,2013-06-29 21:51:00,
2013-06-29 16:52:00,80.8,34.7,29.76,ENE,68,7.4,7.4,19,0.00,,,0.16,VWS V14.01,2013-06-29 21:52:00,
2013-06-29 16:54:00,81.5,35.3,29.76,NE,45,10.7,10.7,19,0.00,,,0.16,VWS V14.01,2013-06-29 21:54:00,
2013-06-29 16:56:00,81.7,35.5,29.76,ENE,68,8.7,8.7,19,0.00,,,0.16,VWS V14.01,2013-06-29 21:56:00,
2013-06-29 16:58:00,82.2,35.9,29.76,NNE,22,16.1,16.1,19,0.00,,,0.16,VWS V14.01,2013-06-29 21:58:00,
2013-06-29 17:00:00,82.4,36.0,29.76,ESE,112,12.1,12.1,19,0.00,,,0.16,VWS V14.01,2013-06-29 22:00:00,
2013-06-29 17:01:00,82.8,36.3,29.76,NE,45,14.8,14.8,19,0.00,,,0.16,VWS V14.01,2013-06-29 22:01:00,
2013-06-29 17:02:00,82.8,36.3,29.76,NE,45,12.8,12.8,19,0.00,,,0.16,VWS V14.01,2013-06-29 22:02:00,
2013-06-29 17:04:00,82.0,33.0,29.76,NNW,338,10.7,10.7,17,0.00,,,0.16,VWS V14.01,2013-06-29 22:04:00,
2013-06-29 17:06:00,82.4,36.0,29.76,NE,45,11.4,11.4,19,0.00,,,0.16,VWS V14.01,2013-06-29 22:06:00,
2013-06-29 17:08:00,82.4,31.8,29.76,NE,45,11.4,11.4,16,0.00,,,0.16,VWS V14.01,2013-06-29 22:08:00,
2013-06-29 17:10:00,82.6,31.9,29.76,North,0,11.4,11.4,16,0.00,,,0.16,VWS V14.01,2013-06-29 22:10:00,
2013-06-29 17:11:00,81.9,32.8,29.76,ESE,112,14.8,14.8,17,0.00,,,0.16,VWS V14.01,2013-06-29 22:11:00,
2013-06-29 17:12:00,81.7,32.7,29.76,North,0,12.1,12.1,17,0.00,,,0.16,VWS V14.01,2013-06-29 22:12:00,
2013-06-29 17:14:00,82.0,33.0,29.76,NNE,22,17.5,17.5,17,0.00,,,0.16,VWS V14.01,2013-06-29 22:14:00,
2013-06-29 17:16:00,81.9,32.8,29.76,North,0,14.8,14.8,17,0.00,,,0.16,VWS V14.01,2013-06-29 22:16:00,
2013-06-29 17:18:00,82.2,33.1,29.76,NNE,22,12.8,12.8,17,0.00,,,0.16,VWS V14.01,2013-06-29 22:18:00,
2013-06-29 17:20:00,82.0,33.0,29.76,East,90,4.7,7.6,17,0.00,,,0.16,VWS V14.01,2013-06-29 22:20:00,
2013-06-29 17:21:00,82.2,33.1,29.76,NE,45,18.8,18.8,17,0.00,,,0.16,VWS V14.01,2013-06-29 22:21:00,
2013-06-29 17:22:00,81.9,32.8,29.76,NE,45,12.8,12.8,17,0.00,,,0.16,VWS V14.01,2013-06-29 22:22:00,
2013-06-29 17:24:00,81.9,32.8,29.76,NNE,22,6.0,6.0,17,0.00,,,0.16,VWS V14.01,2013-06-29 22:24:00,
2013-06-29 17:26:00,81.7,32.7,29.76,NNW,338,16.8,16.8,17,0.00,,,0.16,VWS V14.01,2013-06-29 22:26:00,
2013-06-29 17:28:00,81.7,32.7,29.76,NE,45,9.4,9.4,17,0.00,,,0.16,VWS V14.01,2013-06-29 22:28:00,
2013-06-29 17:30:00,82.0,33.0,29.76,East,90,26.2,26.2,17,0.00,,,0.16,VWS V14.01,2013-06-29 22:30:00,
2013-06-29 17:31:00,81.5,32.5,29.76,East,90,11.4,11.4,17,0.00,,,0.16,VWS V14.01,2013-06-29 22:31:00,
2013-06-29 17:32:00,81.5,32.5,29.76,NW,315,11.4,11.4,17,0.00,,,0.16,VWS V14.01,2013-06-29 22:32:00,
2013-06-29 17:34:00,81.3,32.4,29.76,SSE,158,10.7,10.7,17,0.00,,,0.16,VWS V14.01,2013-06-29 22:34:00,
2013-06-29 17:36:00,81.3,32.4,29.76,East,90,36.2,36.2,17,0.00,,,0.16,VWS V14.01,2013-06-29 22:36:00,
2013-06-29 17:38:00,81.0,32.1,29.76,North,0,22.2,22.2,17,0.00,,,0.16,VWS V14.01,2013-06-29 22:38:00,
2013-06-29 17:40:00,80.8,32.0,29.76,NNE,22,11.4,11.4,17,0.00,,,0.16,VWS V14.01,2013-06-29 22:40:00,
2013-06-29 17:41:00,80.2,31.5,29.76,NNE,22,18.1,18.1,17,0.00,,,0.16,VWS V14.01,2013-06-29 22:41:00,
2013-06-29 17:42:00,80.1,31.4,29.76,NNW,338,26.2,26.2,17,0.00,,,0.16,VWS V14.01,2013-06-29 22:42:00,
2013-06-29 17:44:00,79.3,30.8,29.76,WNW,292,17.5,17.5,17,0.00,,,0.16,VWS V14.01,2013-06-29 22:44:00,
2013-06-29 17:46:00,79.0,30.5,29.76,ENE,68,12.8,12.8,17,0.00,,,0.00,VWS V14.01,2013-06-29 22:46:00,
2013-06-29 17:48:00,79.2,30.6,29.76,NE,45,12.1,12.1,17,0.00,,,0.16,VWS V14.01,2013-06-29 22:48:00,
2013-06-29 17:50:00,79.0,30.5,29.76,North,0,12.8,12.8,17,0.00,,,0.16,VWS V14.01,2013-06-29 22:50:00,
2013-06-29 17:51:00,79.0,30.5,29.76,NNW,338,11.4,11.4,17,0.00,,,0.16,VWS V14.01,2013-06-29 22:51:00,
2013-06-29 17:52:00,78.6,31.6,29.76,NW,315,9.4,10.3,18,0.00,,,0.16,VWS V14.01,2013-06-29 22:52:00,
2013-06-29 17:54:00,77.9,31.0,29.76,NW,315,10.7,10.7,18,0.00,,,0.16,VWS V14.01,2013-06-29 22:54:00,
2013-06-29 17:55:00,77.0,30.3,29.76,ENE,68,16.8,16.8,18,0.00,,,0.16,VWS V14.01,2013-06-29 22:55:00,
2013-06-29 17:56:00,77.4,30.6,29.76,NW,315,16.8,16.8,18,0.00,,,0.16,VWS V14.01,2013-06-29 22:56:00,
2013-06-29 17:58:00,76.8,30.1,29.76,NW,315,22.2,22.2,18,0.00,,,0.16,VWS V14.01,2013-06-29 22:58:00,
2013-06-29 18:00:00,76.5,29.9,29.76,NE,45,10.1,10.1,18,0.00,,,0.16,VWS V14.01,2013-06-29 23:00:00,
2013-06-29 18:02:00,76.5,32.5,29.76,ENE,68,8.7,8.7,20,0.00,,,0.16,VWS V14.01,2013-06-29 23:02:00,
2013-06-29 18:04:00,76.8,32.8,29.76,WSW,248,10.1,10.1,20,0.00,,,0.16,VWS V14.01,2013-06-29 23:04:00,
2013-06-29 18:05:00,76.8,32.8,29.76,NNE,22,22.8,22.8,20,0.00,,,0.16,VWS V14.01,2013-06-29 23:05:00,
2013-06-29 18:06:00,76.8,32.8,29.76,West,270,16.8,16.8,20,0.00,,,0.16,VWS V14.01,2013-06-29 23:06:00,
2013-06-29 18:08:00,76.6,32.6,29.76,NNE,22,9.4,9.4,20,0.00,,,0.16,VWS V14.01,2013-06-29 23:08:00,
2013-06-29 18:10:00,77.0,32.9,29.79,NNE,22,8.7,8.7,20,0.00,,,0.16,VWS V14.01,2013-06-29 23:10:00,
2013-06-29 18:12:00,77.4,33.2,29.79,NNE,22,12.8,12.8,20,0.00,,,0.16,VWS V14.01,2013-06-29 23:12:00,
2013-06-29 18:14:00,77.7,33.5,29.79,NNW,338,11.4,11.4,20,0.00,,,0.16,VWS V14.01,2013-06-29 23:14:00,
2013-06-29 18:15:00,77.7,33.5,29.79,WNW,292,8.7,8.7,20,0.00,,,0.16,VWS V14.01,2013-06-29 23:15:00,
2013-06-29 18:16:00,77.7,33.5,29.79,NNW,338,10.1,10.1,20,0.00,,,0.16,VWS V14.01,2013-06-29 23:16:00,
2013-06-29 18:18:00,77.9,33.6,29.79,ESE,112,12.8,12.8,20,0.00,,,0.16,VWS V14.01,2013-06-29 23:18:00,
2013-06-29 18:20:00,77.7,33.5,29.79,North,0,24.2,24.2,20,0.00,,,0.16,VWS V14.01,2013-06-29 23:20:00,
2013-06-29 18:22:00,77.7,33.5,29.79,NE,45,8.1,8.1,20,0.00,,,0.16,VWS V14.01,2013-06-29 23:22:00,
2013-06-29 18:24:00,77.4,33.2,29.79,NNW,338,14.1,14.1,20,0.00,,,0.16,VWS V14.01,2013-06-29 23:24:00,
2013-06-29 18:25:00,77.2,33.0,29.79,ESE,112,10.7,10.7,20,0.00,,,0.16,VWS V14.01,2013-06-29 23:25:00,
2013-06-29 18:26:00,77.2,33.0,29.79,WNW,292,11.4,11.4,20,0.00,,,0.16,VWS V14.01,2013-06-29 23:26:00,
2013-06-29 18:28:00,76.8,32.8,29.79,NNW,338,12.8,12.8,20,0.00,,,0.16,VWS V14.01,2013-06-29 23:28:00,
2013-06-29 18:30:00,76.8,32.8,29.79,NNE,22,6.0,6.0,20,0.00,,,0.16,VWS V14.01,2013-06-29 23:30:00,
2013-06-29 18:31:00,76.8,32.8,29.79,NE,45,10.1,10.1,20,0.00,,,0.16,VWS V14.01,2013-06-29 23:31:00,
2013-06-29 18:32:00,76.8,32.8,29.79,NNW,338,8.7,8.7,20,0.00,,,0.16,VWS V14.01,2013-06-29 23:32:00,
2013-06-29 18:34:00,76.5,32.5,29.79,NNE,22,44.3,44.3,20,0.00,,,0.16,VWS V14.01,2013-06-29 23:34:00,
2013-06-29 18:35:00,75.7,31.9,29.79,NNE,22,9.4,9.4,20,0.00,,,0.16,VWS V14.01,2013-06-29 23:35:00,
2013-06-29 18:36:00,75.7,31.9,29.79,NNW,338,23.5,23.5,20,0.00,,,0.16,VWS V14.01,2013-06-29 23:36:00,
2013-06-29 18:38:00,75.6,31.7,29.79,NNE,22,10.7,10.7,20,0.00,,,0.16,VWS V14.01,2013-06-29 23:38:00,
2013-06-29 18:40:00,75.4,32.8,29.79,SSW,202,8.1,8.1,21,0.00,,,0.16,VWS V14.01,2013-06-29 23:40:00,
2013-06-29 18:41:00,75.4,32.8,29.79,ENE,68,4.7,5.4,21,0.00,,,0.16,VWS V14.01,2013-06-29 23:41:00,
2013-06-29 18:42:00,75.2,32.6,29.79,NNE,22,11.4,11.4,21,0.00,,,0.16,VWS V14.01,2013-06-29 23:42:00,
2013-06-29 18:44:00,75.2,32.6,29.79,NNE,22,9.4,9.4,21,0.00,,,0.16,VWS V14.01,2013-06-29 23:44:00,
2013-06-29 18:45:00,75.4,32.8,29.79,East,90,10.7,10.7,21,0.00,,,0.16,VWS V14.01,2013-06-29 23:45:00,
2013-06-29 18:46:00,75.4,32.8,29.79,North,0,14.8,14.8,21,0.00,,,0.16,VWS V14.01,2013-06-29 23:46:00,
2013-06-29 18:48:00,75.2,32.6,29.79,NE,45,6.0,6.0,21,0.00,,,0.16,VWS V14.01,2013-06-29 23:48:00,
2013-06-29 18:50:00,75.2,32.6,29.79,ESE,112,8.1,8.1,21,0.00,,,0.16,VWS V14.01,2013-06-29 23:50:00,
2013-06-29 18:51:00,75.0,32.5,29.79,ENE,68,17.5,17.5,21,0.00,,,0.16,VWS V14.01,2013-06-29 23:51:00,
2013-06-29 18:52:00,75.0,32.5,29.79,NNE,22,8.1,8.1,21,0.00,,,0.16,VWS V14.01,2013-06-29 23:52:00,
2013-06-29 18:54:00,75.0,32.5,29.79,ENE,68,6.7,6.7,21,0.00,,,0.16,VWS V14.01,2013-06-29 23:54:00,
2013-06-29 18:56:00,75.0,32.5,29.79,NNE,22,12.1,12.1,21,0.00,,,0.16,VWS V14.01,2013-06-29 23:56:00,
2013-06-29 18:58:00,74.8,32.3,29.79,North,0,14.8,14.8,21,0.00,,,0.16,VWS V14.01,2013-06-29 23:58:00,
2013-06-29 19:00:00,74.5,32.0,29.79,NNE,22,8.1,8.1,21,0.00,,,0.16,VWS V14.01,2013-06-30 00:00:00,
2013-06-29 19:02:00,74.5,32.0,29.79,NNE,22,10.7,10.7,21,0.00,,,0.16,VWS V14.01,2013-06-30 00:02:00,
2013-06-29 19:04:00,74.5,32.0,29.79,North,0,11.4,11.4,21,0.00,,,0.16,VWS V14.01,2013-06-30 00:04:00,
2013-06-29 19:05:00,74.3,31.9,29.79,NNE,22,11.4,11.4,21,0.00,,,0.16,VWS V14.01,2013-06-30 00:05:00,
2013-06-29 19:06:00,74.3,31.9,29.79,ENE,68,10.1,10.1,21,0.00,,,0.16,VWS V14.01,2013-06-30 00:06:00,
2013-06-29 19:08:00,74.1,31.7,29.79,NE,45,19.5,19.5,21,0.00,,,0.16,VWS V14.01,2013-06-30 00:08:00,
2013-06-29 19:10:00,73.9,31.6,29.82,NE,45,10.7,10.7,21,0.00,,,0.16,VWS V14.01,2013-06-30 00:10:00,
2013-06-29 19:12:00,73.9,31.6,29.82,NE,45,17.5,17.5,21,0.00,,,0.16,VWS V14.01,2013-06-30 00:12:00,
2013-06-29 19:14:00,73.8,32.6,29.82,NNE,22,10.1,10.1,22,0.00,,,0.16,VWS V14.01,2013-06-30 00:14:00,
2013-06-29 19:15:00,73.8,32.6,29.82,NE,45,10.1,10.1,22,0.00,,,0.16,VWS V14.01,2013-06-30 00:15:00,
2013-06-29 19:16:00,73.8,32.6,29.82,ESE,112,4.7,4.7,22,0.00,,,0.16,VWS V14.01,2013-06-30 00:16:00,
2013-06-29 19:18:00,73.6,32.4,29.82,NE,45,22.2,22.2,22,0.00,,,0.16,VWS V14.01,2013-06-30 00:18:00,
2013-06-29 19:20:00,73.2,32.1,29.82,NNW,338,12.1,12.1,22,0.00,,,0.16,VWS V14.01,2013-06-30 00:20:00,
2013-06-29 19:22:00,73.2,32.1,29.82,NE,45,18.1,18.1,22,0.00,,,0.16,VWS V14.01,2013-06-30 00:22:00,
2013-06-29 19:24:00,72.9,31.8,29.82,East,90,8.7,8.7,22,0.00,,,0.16,VWS V14.01,2013-06-30 00:24:00,
2013-06-29 19:25:00,72.9,31.8,29.82,NNW,338,8.1,8.1,22,0.00,,,0.16,VWS V14.01,2013-06-30 00:25:00,
2013-06-29 19:26:00,72.9,31.8,29.82,NE,45,10.1,10.1,22,0.00,,,0.16,VWS V14.01,2013-06-30 00:26:00,
2013-06-29 19:28:00,72.7,31.7,29.82,SE,135,6.0,6.0,22,0.00,,,0.16,VWS V14.01,2013-06-30 00:28:00,
2013-06-29 19:30:00,72.5,32.6,29.82,WNW,292,8.1,8.1,23,0.00,,,0.16,VWS V14.01,2013-06-30 00:30:00,
2013-06-29 19:32:00,72.5,32.6,29.82,NE,45,14.1,14.1,23,0.00,,,0.16,VWS V14.01,2013-06-30 00:32:00,
2013-06-29 19:34:00,72.3,32.5,29.82,NE,45,8.7,8.7,23,0.00,,,0.16,VWS V14.01,2013-06-30 00:34:00,
2013-06-29 19:35:00,72.1,32.3,29.82,East,90,10.7,10.7,23,0.00,,,0.16,VWS V14.01,2013-06-30 00:35:00,
2013-06-29 19:36:00,72.1,32.3,29.82,East,90,10.7,10.7,23,0.00,,,0.16,VWS V14.01,2013-06-30 00:36:00,
2013-06-29 19:38:00,72.0,32.2,29.82,East,90,18.1,18.1,23,0.00,,,0.16,VWS V14.01,2013-06-30 00:38:00,
2013-06-29 19:40:00,72.0,32.2,29.82,NNE,22,10.7,10.7,23,0.00,,,0.16,VWS V14.01,2013-06-30 00:40:00,
2013-06-29 19:42:00,72.0,32.2,29.82,ENE,68,8.1,8.1,23,0.00,,,0.16,VWS V14.01,2013-06-30 00:42:00,
2013-06-29 19:44:00,71.8,32.0,29.82,NE,45,10.7,10.7,23,0.00,,,0.16,VWS V14.01,2013-06-30 00:44:00,
2013-06-29 19:45:00,71.6,31.9,29.82,ENE,68,14.1,14.1,23,0.00,,,0.16,VWS V14.01,2013-06-30 00:45:00,
2013-06-29 19:46:00,71.6,31.9,29.82,ENE,68,8.7,8.7,23,0.00,,,0.16,VWS V14.01,2013-06-30 00:46:00,
2013-06-29 19:48:00,71.6,31.9,29.82,ENE,68,17.5,17.5,23,0.00,,,0.16,VWS V14.01,2013-06-30 00:48:00,
2013-06-29 19:50:00,71.4,32.8,29.82,NNW,338,8.7,8.7,24,0.00,,,0.16,VWS V14.01,2013-06-30 00:50:00,
2013-06-29 19:52:00,71.2,32.6,29.82,NE,45,17.5,17.5,24,0.00,,,0.16,VWS V14.01,2013-06-30 00:52:00,
2013-06-29 19:54:00,71.2,32.6,29.82,NE,45,7.4,7.4,24,0.00,,,0.16,VWS V14.01,2013-06-30 00:54:00,
2013-06-29 19:55:00,71.1,32.5,29.82,ESE,112,18.8,18.8,24,0.00,,,0.16,VWS V14.01,2013-06-30 00:55:00,
2013-06-29 19:56:00,71.1,32.5,29.82,NE,45,8.1,8.1,24,0.00,,,0.16,VWS V14.01,2013-06-30 00:56:00,
2013-06-29 19:58:00,70.9,32.3,29.82,North,0,10.1,10.1,24,0.00,,,0.16,VWS V14.01,2013-06-30 00:58:00,
2013-06-29 20:00:00,70.9,32.3,29.82,NNW,338,10.1,10.1,24,0.00,,,0.16,VWS V14.01,2013-06-30 01:00:00,
2013-06-29 20:02:00,70.9,32.3,29.82,East,90,8.7,8.7,24,0.00,,,0.16,VWS V14.01,2013-06-30 01:02:00,
2013-06-29 20:04:00,70.7,32.2,29.82,NNE,22,6.0,6.0,24,0.00,,,0.16,VWS V14.01,2013-06-30 01:04:00,
2013-06-29 20:05:00,70.5,32.0,29.82,WNW,292,10.1,10.1,24,0.00,,,0.16,VWS V14.01,2013-06-30 01:05:00,
2013-06-29 20:06:00,70.5,32.0,29.82,NE,45,6.7,6.7,24,0.00,,,0.16,VWS V14.01,2013-06-30 01:06:00,
2013-06-29 20:08:00,70.5,32.0,29.82,NE,45,7.4,7.4,24,0.00,,,0.16,VWS V14.01,2013-06-30 01:08:00,
2013-06-29 20:10:00,70.3,32.9,29.82,NE,45,4.7,4.7,25,0.00,,,0.16,VWS V14.01,2013-06-30 01:10:00,
2013-06-29 20:12:00,70.3,32.9,29.82,East,90,3.4,3.4,25,0.00,,,0.16,VWS V14.01,2013-06-30 01:12:00,
2013-06-29 20:14:00,70.2,32.7,29.82,NNE,22,10.1,10.1,25,0.00,,,0.16,VWS V14.01,2013-06-30 01:14:00,
2013-06-29 20:15:00,70.0,32.6,29.82,NE,45,6.0,6.0,25,0.00,,,0.16,VWS V14.01,2013-06-30 01:15:00,
2013-06-29 20:16:00,70.0,32.6,29.82,NE,45,8.1,8.1,25,0.00,,,0.16,VWS V14.01,2013-06-30 01:16:00,
2013-06-29 20:18:00,70.0,32.6,29.82,NNE,22,7.4,7.4,25,0.00,,,0.16,VWS V14.01,2013-06-30 01:18:00,
2013-06-29 20:20:00,69.8,32.4,29.82,NE,45,6.7,6.7,25,0.00,,,0.16,VWS V14.01,2013-06-30 01:20:00,
2013-06-29 20:22:00,69.6,33.2,29.82,East,90,8.7,8.7,26,0.00,,,0.16,VWS V14.01,2013-06-30 01:22:00,
2013-06-29 20:24:00,69.6,33.2,29.82,North,0,4.7,4.9,26,0.00,,,0.16,VWS V14.01,2013-06-30 01:24:00,
2013-06-29 20:25:00,69.4,33.1,29.82,NE,45,9.4,9.4,26,0.00,,,0.16,VWS V14.01,2013-06-30 01:25:00,
2013-06-29 20:26:00,69.6,33.2,29.82,NE,45,4.7,4.7,26,0.00,,,0.16,VWS V14.01,2013-06-30 01:26:00,
2013-06-29 20:28:00,69.4,33.1,29.82,ENE,68,8.1,8.1,26,0.00,,,0.16,VWS V14.01,2013-06-30 01:28:00,
2013-06-29 20:30:00,69.3,32.9,29.82,East,90,6.0,6.0,26,0.00,,,0.16,VWS V14.01,2013-06-30 01:30:00,
2013-06-29 20:32:00,69.3,32.9,29.82,SE,135,4.7,4.7,26,0.00,,,0.16,VWS V14.01,2013-06-30 01:32:00,
2013-06-29 20:34:00,69.1,32.8,29.82,NE,45,4.0,4.0,26,0.00,,,0.16,VWS V14.01,2013-06-30 01:34:00,
2013-06-29 20:35:00,68.9,32.6,29.82,NE,45,6.7,6.7,26,0.00,,,0.16,VWS V14.01,2013-06-30 01:35:00,
2013-06-29 20:36:00,68.9,32.6,29.82,NE,45,12.1,12.1,26,0.00,,,0.16,VWS V14.01,2013-06-30 01:36:00,
2013-06-29 20:38:00,68.9,33.6,29.82,NNE,22,4.7,6.5,27,0.00,,,0.16,VWS V14.01,2013-06-30 01:38:00,
2013-06-29 20:40:00,68.9,33.6,29.79,East,90,11.4,11.4,27,0.00,,,0.16,VWS V14.01,2013-06-30 01:40:00,
2013-06-29 20:42:00,68.7,33.4,29.79,NNE,22,6.0,6.0,27,0.00,,,0.16,VWS V14.01,2013-06-30 01:42:00,
2013-06-29 20:44:00,68.7,33.4,29.79,ENE,68,6.0,6.0,27,0.00,,,0.16,VWS V14.01,2013-06-30 01:44:00,
2013-06-29 20:45:00,68.7,34.3,29.79,NE,45,4.0,4.0,28,0.00,,,0.16,VWS V14.01,2013-06-30 01:45:00,
2013-06-29 20:46:00,68.7,34.3,29.79,NE,45,7.4,7.4,28,0.00,,,0.16,VWS V14.01,2013-06-30 01:46:00,
2013-06-29 20:48:00,68.5,34.2,29.79,NE,45,7.4,7.4,28,0.00,,,0.16,VWS V14.01,2013-06-30 01:48:00,
2013-06-29 20:50:00,68.2,33.9,29.79,ENE,68,4.7,4.7,28,0.00,,,0.16,VWS V14.01,2013-06-30 01:50:00,
2013-06-29 20:52:00,68.2,33.9,29.79,East,90,6.0,6.0,28,0.00,,,0.16,VWS V14.01,2013-06-30 01:52:00,
2013-06-29 20:54:00,68.2,33.9,29.79,ESE,112,4.0,4.0,28,0.00,,,0.16,VWS V14.01,2013-06-30 01:54:00,
2013-06-29 20:55:00,68.0,34.6,29.82,ESE,112,8.7,8.7,29,0.00,,,0.16,VWS V14.01,2013-06-30 01:55:00,
2013-06-29 20:56:00,68.0,34.6,29.82,East,90,6.7,6.7,29,0.00,,,0.16,VWS V14.01,2013-06-30 01:56:00,
2013-06-29 20:58:00,68.0,34.6,29.82,ESE,112,10.1,10.1,29,0.00,,,0.16,VWS V14.01,2013-06-30 01:58:00,
2013-06-29 21:00:00,67.8,35.3,29.82,East,90,6.0,6.0,30,0.00,,,0.16,VWS V14.01,2013-06-30 02:00:00,
2013-06-29 21:02:00,67.8,35.3,29.82,ESE,112,8.1,8.1,30,0.00,,,0.16,VWS V14.01,2013-06-30 02:02:00,
2013-06-29 21:04:00,67.6,35.1,29.82,NNE,22,8.7,8.7,30,0.00,,,0.16,VWS V14.01,2013-06-30 02:04:00,
2013-06-29 21:05:00,67.6,35.1,29.82,NE,45,12.1,12.1,30,0.00,,,0.16,VWS V14.01,2013-06-30 02:05:00,
2013-06-29 21:06:00,67.6,35.1,29.82,NE,45,12.1,12.1,30,0.00,,,0.16,VWS V14.01,2013-06-30 02:06:00,
2013-06-29 21:08:00,67.5,35.0,29.82,ENE,68,8.1,8.1,30,0.00,,,0.16,VWS V14.01,2013-06-30 02:08:00,
2013-06-29 21:10:00,67.5,35.0,29.82,ENE,68,8.1,8.1,30,0.00,,,0.16,VWS V14.01,2013-06-30 02:10:00,
2013-06-29 21:12:00,67.5,35.0,29.82,ENE,68,0.0,3.4,30,0.00,,,0.16,VWS V14.01,2013-06-30 02:12:00,
2013-06-29 21:14:00,67.3,34.8,29.82,ENE,68,8.1,8.1,30,0.00,,,0.16,VWS V14.01,2013-06-30 02:14:00,
2013-06-29 21:15:00,67.3,34.8,29.82,ENE,68,6.0,6.0,30,0.00,,,0.16,VWS V14.01,2013-06-30 02:15:00,
2013-06-29 21:16:00,67.3,34.8,29.82,ENE,68,6.7,6.7,30,0.00,,,0.16,VWS V14.01,2013-06-30 02:16:00,
2013-06-29 21:18:00,67.1,34.7,29.82,East,90,3.4,3.4,30,0.00,,,0.16,VWS V14.01,2013-06-30 02:18:00,
2013-06-29 21:20:00,66.9,34.5,29.82,ENE,68,0.0,0.9,30,0.00,,,0.16,VWS V14.01,2013-06-30 02:20:00,
2013-06-29 21:22:00,66.7,34.3,29.82,NE,45,6.7,6.7,30,0.00,,,0.16,VWS V14.01,2013-06-30 02:22:00,
2013-06-29 21:24:00,66.7,34.3,29.82,NE,45,6.0,6.0,30,0.00,,,0.16,VWS V14.01,2013-06-30 02:24:00,
2013-06-29 21:25:00,66.7,34.3,29.82,East,90,0.0,1.6,30,0.00,,,0.16,VWS V14.01,2013-06-30 02:25:00,
2013-06-29 21:26:00,66.7,34.3,29.82,East,90,3.4,3.4,30,0.00,,,0.16,VWS V14.01,2013-06-30 02:26:00,
2013-06-29 21:28:00,66.6,34.2,29.82,East,90,4.0,4.0,30,0.00,,,0.16,VWS V14.01,2013-06-30 02:28:00,
2013-06-29 21:30:00,66.4,34.9,29.82,ENE,68,8.1,8.1,31,0.00,,,0.16,VWS V14.01,2013-06-30 02:30:00,
2013-06-29 21:32:00,66.4,34.9,29.82,ENE,68,10.1,10.1,31,0.00,,,0.16,VWS V14.01,2013-06-30 02:32:00,
2013-06-29 21:34:00,66.2,34.7,29.82,ENE,68,2.7,3.1,31,0.00,,,0.16,VWS V14.01,2013-06-30 02:34:00,
2013-06-29 21:35:00,66.0,34.5,29.82,East,90,2.7,2.7,31,0.00,,,0.16,VWS V14.01,2013-06-30 02:35:00,
2013-06-29 21:36:00,66.2,34.7,29.82,East,90,4.0,4.0,31,0.00,,,0.16,VWS V14.01,2013-06-30 02:36:00,
2013-06-29 21:38:00,66.0,35.3,29.82,NNE,22,0.0,2.0,32,0.00,,,0.16,VWS V14.01,2013-06-30 02:38:00,
2013-06-29 21:40:00,65.8,35.2,29.82,ESE,112,7.4,7.4,32,0.00,,,0.16,VWS V14.01,2013-06-30 02:40:00,
2013-06-29 21:42:00,65.8,35.2,29.82,NE,45,8.1,8.1,32,0.00,,,0.16,VWS V14.01,2013-06-30 02:42:00,
2013-06-29 21:44:00,65.8,35.2,29.82,ENE,68,4.0,4.0,32,0.00,,,0.16,VWS V14.01,2013-06-30 02:44:00,
2013-06-29 21:45:00,65.7,35.8,29.82,ENE,68,0.0,0.0,33,0.00,,,0.16,VWS V14.01,2013-06-30 02:45:00,
2013-06-29 21:46:00,65.7,35.8,29.82,ENE,68,0.0,0.0,33,0.00,,,0.16,VWS V14.01,2013-06-30 02:46:00,
2013-06-29 21:48:00,65.5,35.6,29.82,ENE,68,0.0,0.0,33,0.00,,,0.16,VWS V14.01,2013-06-30 02:48:00,
2013-06-29 21:50:00,65.3,35.5,29.82,ENE,68,0.0,0.0,33,0.00,,,0.16,VWS V14.01,2013-06-30 02:50:00,
2013-06-29 21:52:00,65.1,35.3,29.82,ENE,68,0.0,0.0,33,0.00,,,0.16,VWS V14.01,2013-06-30 02:52:00,
2013-06-29 21:54:00,65.1,35.3,29.82,ENE,68,4.0,4.0,33,0.00,,,0.16,VWS V14.01,2013-06-30 02:54:00,
2013-06-29 21:55:00,64.9,35.2,29.85,NE,45,0.0,0.0,33,0.00,,,0.16,VWS V14.01,2013-06-30 02:55:00,
2013-06-29 21:56:00,64.9,35.2,29.85,NE,45,0.0,0.9,33,0.00,,,0.16,VWS V14.01,2013-06-30 02:56:00,
2013-06-29 21:58:00,64.8,35.0,29.85,NE,45,0.0,0.0,33,0.00,,,0.16,VWS V14.01,2013-06-30 02:58:00,
2013-06-29 22:00:00,64.6,34.8,29.85,NE,45,3.4,3.4,33,0.00,,,0.16,VWS V14.01,2013-06-30 03:00:00,
2013-06-29 22:02:00,64.4,34.7,29.85,NE,45,0.0,2.0,33,0.00,,,0.16,VWS V14.01,2013-06-30 03:02:00,
2013-06-29 22:04:00,64.4,34.7,29.85,ENE,68,0.0,0.9,33,0.00,,,0.16,VWS V14.01,2013-06-30 03:04:00,
2013-06-29 22:05:00,64.4,34.7,29.85,NNE,22,0.0,0.9,33,0.00,,,0.16,VWS V14.01,2013-06-30 03:05:00,
2013-06-29 22:06:00,64.4,34.7,29.85,NNE,22,0.0,1.1,33,0.00,,,0.16,VWS V14.01,2013-06-30 03:06:00,
2013-06-29 22:08:00,64.4,34.7,29.85,ENE,68,0.0,1.6,33,0.00,,,0.16,VWS V14.01,2013-06-30 03:08:00,
2013-06-29 22:10:00,64.2,35.3,29.85,NW,315,0.0,0.0,34,0.00,,,0.16,VWS V14.01,2013-06-30 03:10:00,
2013-06-29 22:12:00,64.2,35.3,29.85,NW,315,0.0,0.0,34,0.00,,,0.16,VWS V14.01,2013-06-30 03:12:00,
2013-06-29 22:14:00,64.2,35.3,29.85,NE,45,0.0,2.2,34,0.00,,,0.16,VWS V14.01,2013-06-30 03:14:00,
2013-06-29 22:15:00,64.2,35.3,29.85,ESE,112,0.0,1.1,34,0.00,,,0.16,VWS V14.01,2013-06-30 03:15:00,
2013-06-29 22:16:00,64.2,35.3,29.85,ESE,112,0.0,1.1,34,0.00,,,0.16,VWS V14.01,2013-06-30 03:16:00,
2013-06-29 22:18:00,64.2,35.3,29.85,NE,45,0.0,1.6,34,0.00,,,0.16,VWS V14.01,2013-06-30 03:18:00,
2013-06-29 22:20:00,64.0,35.1,29.85,North,0,8.7,8.7,34,0.00,,,0.16,VWS V14.01,2013-06-30 03:20:00,
2013-06-29 22:22:00,64.2,35.3,29.85,ENE,68,4.0,4.0,34,0.00,,,0.16,VWS V14.01,2013-06-30 03:22:00,
2013-06-29 22:24:00,64.2,35.3,29.85,NNW,338,0.0,1.3,34,0.00,,,0.16,VWS V14.01,2013-06-30 03:24:00,
2013-06-29 22:25:00,64.0,35.1,29.85,NW,315,4.0,4.0,34,0.00,,,0.16,VWS V14.01,2013-06-30 03:25:00,
2013-06-29 22:26:00,64.0,35.1,29.85,NNW,338,0.0,0.0,34,0.00,,,0.16,VWS V14.01,2013-06-30 03:26:00,
2013-06-29 22:28:00,64.0,35.1,29.85,North,0,0.0,2.0,34,0.00,,,0.16,VWS V14.01,2013-06-30 03:28:00,
2013-06-29 22:30:00,63.9,35.0,29.85,NNW,338,0.0,0.0,34,0.00,,,0.16,VWS V14.01,2013-06-30 03:30:00,
2013-06-29 22:32:00,63.9,35.0,29.85,NNW,338,0.0,0.0,34,0.00,,,0.16,VWS V14.01,2013-06-30 03:32:00,
2013-06-29 22:34:00,63.7,34.8,29.85,NNW,338,0.0,0.0,34,0.00,,,0.16,VWS V14.01,2013-06-30 03:34:00,
2013-06-29 22:35:00,63.5,34.7,29.85,NNW,338,0.0,0.0,34,0.00,,,0.16,VWS V14.01,2013-06-30 03:35:00,
2013-06-29 22:36:00,63.7,34.8,29.85,NNW,338,0.0,0.0,34,0.00,,,0.16,VWS V14.01,2013-06-30 03:36:00,
2013-06-29 22:38:00,63.5,34.7,29.85,ENE,68,0.0,0.0,34,0.00,,,0.16,VWS V14.01,2013-06-30 03:38:00,
2013-06-29 22:40:00,63.3,34.5,29.88,East,90,0.0,0.0,34,0.00,,,0.16,VWS V14.01,2013-06-30 03:40:00,
2013-06-29 22:42:00,63.3,34.5,29.88,East,90,0.0,0.0,34,0.00,,,0.16,VWS V14.01,2013-06-30 03:42:00,
2013-06-29 22:44:00,63.1,34.3,29.88,NE,45,0.0,1.1,34,0.00,,,0.16,VWS V14.01,2013-06-30 03:44:00,
2013-06-29 22:45:00,63.0,34.2,29.88,NNE,22,0.0,0.0,34,0.00,,,0.16,VWS V14.01,2013-06-30 03:45:00,
2013-06-29 22:46:00,63.0,34.2,29.88,NNE,22,0.0,0.0,34,0.00,,,0.16,VWS V14.01,2013-06-30 03:46:00,
2013-06-29 22:48:00,63.0,34.9,29.88,NNE,22,0.0,0.0,35,0.00,,,0.16,VWS V14.01,2013-06-30 03:48:00,
2013-06-29 22:50:00,63.0,34.9,29.88,East,90,0.0,2.2,35,0.00,,,0.16,VWS V14.01,2013-06-30 03:50:00,
2013-06-29 22:52:00,63.0,34.9,29.88,East,90,0.0,0.9,35,0.00,,,0.16,VWS V14.01,2013-06-30 03:52:00,
2013-06-29 22:54:00,63.0,34.9,29.88,ENE,68,0.0,0.0,35,0.00,,,0.16,VWS V14.01,2013-06-30 03:54:00,
2013-06-29 22:55:00,62.8,34.8,29.88,ENE,68,0.0,0.0,35,0.00,,,0.16,VWS V14.01,2013-06-30 03:55:00,
2013-06-29 22:56:00,63.0,34.9,29.88,ENE,68,0.0,0.0,35,0.00,,,0.16,VWS V14.01,2013-06-30 03:56:00,
2013-06-29 22:58:00,62.8,34.8,29.88,ENE,68,0.0,0.0,35,0.00,,,0.16,VWS V14.01,2013-06-30 03:58:00,
2013-06-29 23:00:00,62.6,34.6,29.88,NNW,338,0.0,0.0,35,0.00,,,0.16,VWS V14.01,2013-06-30 04:00:00,
2013-06-29 23:01:00,62.6,34.6,29.88,NNW,338,0.0,0.0,35,0.00,,,0.16,VWS V14.01,2013-06-30 04:01:00,
2013-06-29 23:02:00,62.4,34.4,29.88,NNW,338,0.0,0.0,35,0.00,,,0.16,VWS V14.01,2013-06-30 04:02:00,
2013-06-29 23:04:00,62.4,35.1,29.88,NNW,338,0.0,0.0,36,0.00,,,0.16,VWS V14.01,2013-06-30 04:04:00,
2013-06-29 23:06:00,62.2,35.0,29.88,NNW,338,0.0,0.0,36,0.00,,,0.16,VWS V14.01,2013-06-30 04:06:00,
2013-06-29 23:08:00,62.2,35.0,29.88,NNW,338,0.0,0.0,36,0.00,,,0.16,VWS V14.01,2013-06-30 04:08:00,
2013-06-29 23:10:00,62.2,35.0,29.88,NNW,338,0.0,0.0,36,0.00,,,0.16,VWS V14.01,2013-06-30 04:10:00,
2013-06-29 23:11:00,62.2,35.0,29.88,NNW,338,0.0,0.0,36,0.00,,,0.16,VWS V14.01,2013-06-30 04:11:00,
2013-06-29 23:12:00,62.2,35.0,29.88,NNW,338,0.0,0.0,36,0.00,,,0.16,VWS V14.01,2013-06-30 04:12:00,
2013-06-29 23:14:00,62.1,34.8,29.88,NNW,338,0.0,0.0,36,0.00,,,0.16,VWS V14.01,2013-06-30 04:14:00,
2013-06-29 23:16:00,61.9,35.3,29.88,NNW,338,0.0,0.0,37,0.00,,,0.16,VWS V14.01,2013-06-30 04:16:00,
2013-06-29 23:18:00,61.9,35.3,29.88,NNW,338,0.0,0.0,37,0.00,,,0.16,VWS V14.01,2013-06-30 04:18:00,
2013-06-29 23:20:00,61.9,35.3,29.88,NNW,338,0.0,0.0,37,0.00,,,0.16,VWS V14.01,2013-06-30 04:20:00,
2013-06-29 23:21:00,61.9,35.3,29.88,NNW,338,0.0,0.0,37,0.00,,,0.16,VWS V14.01,2013-06-30 04:21:00,
2013-06-29 23:22:00,61.9,35.3,29.88,NNW,338,0.0,0.0,37,0.00,,,0.16,VWS V14.01,2013-06-30 04:22:00,
2013-06-29 23:24:00,61.9,35.3,29.88,NNW,338,0.0,0.0,37,0.00,,,0.16,VWS V14.01,2013-06-30 04:24:00,
2013-06-29 23:26:00,61.7,35.2,29.85,NNW,338,0.0,0.0,37,0.00,,,0.16,VWS V14.01,2013-06-30 04:26:00,
2013-06-29 23:28:00,61.7,35.2,29.85,NNW,338,0.0,0.0,37,0.00,,,0.16,VWS V14.01,2013-06-30 04:28:00,
2013-06-29 23:30:00,61.7,35.2,29.85,NNW,338,0.0,0.0,37,0.00,,,0.16,VWS V14.01,2013-06-30 04:30:00,
2013-06-29 23:31:00,61.7,35.2,29.85,NNW,338,0.0,0.0,37,0.00,,,0.16,VWS V14.01,2013-06-30 04:31:00,
2013-06-29 23:32:00,61.7,35.2,29.85,NNW,338,0.0,0.0,37,0.00,,,0.16,VWS V14.01,2013-06-30 04:32:00,
2013-06-29 23:34:00,61.7,35.2,29.85,NNW,338,0.0,0.0,37,0.00,,,0.16,VWS V14.01,2013-06-30 04:34:00,
2013-06-29 23:36:00,61.7,35.2,29.85,NNE,22,0.0,0.0,37,0.00,,,0.16,VWS V14.01,2013-06-30 04:36:00,
2013-06-29 23:38:00,61.5,35.7,29.85,NNE,22,0.0,0.0,38,0.00,,,0.16,VWS V14.01,2013-06-30 04:38:00,
2013-06-29 23:40:00,61.5,35.7,29.88,NNE,22,0.0,1.1,38,0.00,,,0.16,VWS V14.01,2013-06-30 04:40:00,
2013-06-29 23:41:00,61.3,35.5,29.88,NNE,22,0.0,0.9,38,0.00,,,0.16,VWS V14.01,2013-06-30 04:41:00,
2013-06-29 23:42:00,61.3,35.5,29.88,NNE,22,0.0,0.9,38,0.00,,,0.16,VWS V14.01,2013-06-30 04:42:00,
2013-06-29 23:44:00,61.3,35.5,29.88,NNE,22,0.0,0.0,38,0.00,,,0.16,VWS V14.01,2013-06-30 04:44:00,
2013-06-29 23:46:00,61.2,36.0,29.88,ENE,68,0.0,2.2,39,0.00,,,0.16,VWS V14.01,2013-06-30 04:46:00,
2013-06-29 23:48:00,61.2,35.4,29.88,NE,45,0.0,0.9,38,0.00,,,0.16,VWS V14.01,2013-06-30 04:48:00,
2013-06-29 23:50:00,61.0,35.9,29.88,NE,45,0.0,0.0,39,0.00,,,0.16,VWS V14.01,2013-06-30 04:50:00,
2013-06-29 23:51:00,61.0,35.9,29.88,ENE,68,0.0,0.0,39,0.00,,,0.16,VWS V14.01,2013-06-30 04:51:00,
2013-06-29 23:52:00,61.0,35.9,29.88,ENE,68,0.0,0.0,39,0.00,,,0.16,VWS V14.01,2013-06-30 04:52:00,
2013-06-29 23:54:00,61.0,35.9,29.88,NNW,338,4.0,4.0,39,0.00,,,0.16,VWS V14.01,2013-06-30 04:54:00,
2013-06-29 23:56:00,61.0,35.9,29.88,NNW,338,0.0,0.0,39,0.00,,,0.16,VWS V14.01,2013-06-30 04:56:00,
2013-06-29 23:58:00,61.0,35.9,29.88,NNW,338,0.0,0.0,39,0.00,,,0.16,VWS V14.01,2013-06-30 04:58:00,